Time,TemperatureF,DewpointF,PressureIn,WindDirection,WindDirectionDegrees,WindSpeedMPH,WindSpeedGustMPH,Humidity,HourlyPrecipIn,Conditions,Clouds,dailyrainin,SoftwareType,DateUTC
2013-12-24 00:00:00,24.1,17.0,30.27,SW,225,0.0,0.0,74,0.00,,SKC,0.00,VWS V14.00,2013-12-24 08:00:00,
2013-12-24 00:01:00,23.9,16.9,30.27,SW,225,0.0,0.0,74,0.00,,SKC,0.00,VWS V14.00,2013-12-24 08:01:00,
2013-12-24 00:03:00,23.9,16.9,30.27,SW,225,0.0,0.0,74,0.00,,SKC,0.00,VWS V14.00,2013-12-24 08:03:00,
2013-12-24 00:04:00,23.9,17.2,30.27,SW,225,0.0,0.0,75,0.00,,SKC,0.00,VWS V14.00,2013-12-24 08:04:00,
2013-12-24 00:05:00,23.9,17.2,30.27,SW,225,0.0,0.0,75,0.00,,SKC,0.00,VWS V14.00,2013-12-24 08:05:00,
2013-12-24 00:06:00,23.9,17.2,30.27,SW,225,0.0,0.0,75,0.00,,SKC,0.00,VWS V14.00,2013-12-24 08:06:00,
2013-12-24 00:08:00,23.9,17.2,30.27,South,180,0.0,0.0,75,0.00,,SKC,0.00,VWS V14.00,2013-12-24 08:08:00,
2013-12-24 00:09:00,24.1,17.7,30.27,South,180,2.5,2.5,76,0.00,,SKC,0.00,VWS V14.00,2013-12-24 08:09:00,
2013-12-24 00:10:00,24.1,17.7,30.27,South,180,2.5,2.5,76,0.00,,SKC,0.00,VWS V14.00,2013-12-24 08:10:00,
2013-12-24 00:11:00,24.3,18.1,30.27,South,180,0.0,0.0,77,0.00,,SKC,0.00,VWS V14.00,2013-12-24 08:11:00,
2013-12-24 00:13:00,24.5,18.3,30.27,South,180,0.0,0.0,77,0.00,,SKC,0.00,VWS V14.00,2013-12-24 08:13:00,
2013-12-24 00:14:00,24.5,18.6,30.27,SSW,202,0.0,0.0,78,0.00,,SKC,0.00,VWS V14.00,2013-12-24 08:14:00,
2013-12-24 00:15:00,24.5,18.6,30.27,SSW,202,0.0,0.0,78,0.00,,SKC,0.00,VWS V14.00,2013-12-24 08:15:00,
2013-12-24 00:17:00,25.0,19.4,30.27,SSW,202,2.7,2.7,79,0.00,,SKC,0.00,VWS V14.00,2013-12-24 08:17:00,
2013-12-24 00:19:00,25.2,19.6,30.27,SSW,202,1.3,1.3,79,0.00,,SKC,0.00,VWS V14.00,2013-12-24 08:19:00,
2013-12-24 00:20:00,25.4,20.1,30.27,SW,225,2.5,2.5,80,0.00,,SKC,0.00,VWS V14.00,2013-12-24 08:20:00,
2013-12-24 00:22:00,25.7,20.7,30.27,SW,225,0.0,0.0,81,0.00,,SKC,0.00,VWS V14.00,2013-12-24 08:22:00,
2013-12-24 00:24:00,25.7,20.7,30.27,SW,225,0.0,0.0,81,0.00,,SKC,0.00,VWS V14.00,2013-12-24 08:24:00,
2013-12-24 00:25:00,25.6,20.5,30.27,SW,225,0.0,0.0,81,0.00,,SKC,0.00,VWS V14.00,2013-12-24 08:25:00,
2013-12-24 00:26:00,25.4,20.4,30.27,SW,225,0.0,0.0,81,0.00,,SKC,0.00,VWS V14.00,2013-12-24 08:26:00,
2013-12-24 00:27:00,25.2,19.9,30.27,NE,45,2.2,2.2,80,0.00,,SKC,0.00,VWS V14.00,2013-12-24 08:27:00,
2013-12-24 00:29:00,25.2,19.9,30.27,NE,45,0.0,0.0,80,0.00,,SKC,0.00,VWS V14.00,2013-12-24 08:29:00,
2013-12-24 00:30:00,25.2,19.9,30.27,East,90,0.0,0.0,80,0.00,,SKC,0.00,VWS V14.00,2013-12-24 08:30:00,
2013-12-24 00:31:00,25.0,19.7,30.27,East,90,0.0,0.0,80,0.00,,SKC,0.00,VWS V14.00,2013-12-24 08:31:00,
2013-12-24 00:32:00,25.2,19.9,30.27,East,90,0.0,0.0,80,0.00,,SKC,0.00,VWS V14.00,2013-12-24 08:32:00,
2013-12-24 00:34:00,25.2,19.9,30.27,East,90,0.0,0.0,80,0.00,,SKC,0.00,VWS V14.00,2013-12-24 08:34:00,
2013-12-24 00:35:00,25.4,20.1,30.27,East,90,0.0,0.0,80,0.00,,SKC,0.00,VWS V14.00,2013-12-24 08:35:00,
2013-12-24 00:36:00,25.4,20.1,30.27,East,90,0.0,0.0,80,0.00,,SKC,0.00,VWS V14.00,2013-12-24 08:36:00,
2013-12-24 00:37:00,25.2,19.9,30.27,East,90,0.0,0.0,80,0.00,,SKC,0.00,VWS V14.00,2013-12-24 08:37:00,
2013-12-24 00:39:00,25.0,19.7,30.27,NE,45,0.0,0.0,80,0.00,,SKC,0.00,VWS V14.00,2013-12-24 08:39:00,
2013-12-24 00:40:00,25.2,19.9,30.27,NE,45,0.0,0.0,80,0.00,,SKC,0.00,VWS V14.00,2013-12-24 08:40:00,
2013-12-24 00:41:00,25.0,19.7,30.27,East,90,0.0,0.0,80,0.00,,SKC,0.00,VWS V14.00,2013-12-24 08:41:00,
2013-12-24 00:42:00,25.0,19.7,30.27,ENE,68,0.0,0.0,80,0.00,,SKC,0.00,VWS V14.00,2013-12-24 08:42:00,
2013-12-24 00:44:00,24.8,19.6,30.27,East,90,0.0,0.0,80,0.00,,SKC,0.00,VWS V14.00,2013-12-24 08:44:00,
2013-12-24 00:45:00,24.8,19.3,30.27,East,90,0.0,0.0,79,0.00,,SKC,0.00,VWS V14.00,2013-12-24 08:45:00,
2013-12-24 00:46:00,24.8,19.3,30.27,East,90,0.0,0.0,79,0.00,,SKC,0.00,VWS V14.00,2013-12-24 08:46:00,
2013-12-24 00:47:00,24.8,19.3,30.27,East,90,0.0,0.0,79,0.00,,SKC,0.00,VWS V14.00,2013-12-24 08:47:00,
2013-12-24 00:49:00,24.8,19.6,30.27,East,90,0.0,0.0,80,0.00,,SKC,0.00,VWS V14.00,2013-12-24 08:49:00,
2013-12-24 00:50:00,24.8,19.6,30.27,East,90,0.0,0.0,80,0.00,,SKC,0.00,VWS V14.00,2013-12-24 08:50:00,
2013-12-24 00:51:00,24.8,19.6,30.27,East,90,0.0,0.0,80,0.00,,SKC,0.00,VWS V14.00,2013-12-24 08:51:00,
2013-12-24 00:52:00,24.7,19.4,30.27,East,90,0.0,0.0,80,0.00,,SKC,0.00,VWS V14.00,2013-12-24 08:52:00,
2013-12-24 00:54:00,24.7,19.4,30.27,East,90,0.0,0.0,80,0.00,,SKC,0.00,VWS V14.00,2013-12-24 08:54:00,
2013-12-24 00:55:00,24.5,19.2,30.27,NE,45,0.0,0.0,80,0.00,,SKC,0.00,VWS V14.00,2013-12-24 08:55:00,
2013-12-24 00:56:00,24.5,19.2,30.27,ENE,68,0.0,0.0,80,0.00,,SKC,0.00,VWS V14.00,2013-12-24 08:56:00,
2013-12-24 00:57:00,24.5,19.2,30.27,ENE,68,0.0,0.0,80,0.00,,SKC,0.00,VWS V14.00,2013-12-24 08:57:00,
2013-12-24 00:59:00,24.3,18.7,30.27,ENE,68,0.0,0.0,79,0.00,,SKC,0.00,VWS V14.00,2013-12-24 08:59:00,
2013-12-24 01:00:00,24.1,18.6,30.27,ESE,112,0.0,0.0,79,0.00,,SKC,0.00,VWS V14.00,2013-12-24 09:00:00,
2013-12-24 01:01:00,24.1,18.6,30.27,ESE,112,0.0,0.0,79,0.00,,SKC,0.00,VWS V14.00,2013-12-24 09:01:00,
2013-12-24 01:02:00,24.1,18.6,30.27,ESE,112,0.0,0.0,79,0.00,,SKC,0.00,VWS V14.00,2013-12-24 09:02:00,
2013-12-24 01:03:00,24.1,18.6,30.27,ESE,112,0.0,0.0,79,0.00,,SKC,0.00,VWS V14.00,2013-12-24 09:03:00,
2013-12-24 01:04:00,23.9,18.4,30.27,ENE,68,0.0,0.0,79,0.00,,SKC,0.00,VWS V14.00,2013-12-24 09:04:00,
2013-12-24 01:06:00,23.9,18.4,30.27,East,90,0.0,0.0,79,0.00,,SKC,0.00,VWS V14.00,2013-12-24 09:06:00,
2013-12-24 01:07:00,23.9,18.4,30.27,SE,135,0.9,0.9,79,0.00,,SKC,0.00,VWS V14.00,2013-12-24 09:07:00,
2013-12-24 01:08:00,23.9,18.4,30.27,SE,135,1.1,1.1,79,0.00,,SKC,0.00,VWS V14.00,2013-12-24 09:08:00,
2013-12-24 01:09:00,24.3,18.7,30.27,SE,135,0.9,0.9,79,0.00,,SKC,0.00,VWS V14.00,2013-12-24 09:09:00,
2013-12-24 01:11:00,24.3,18.7,30.27,South,180,3.8,3.8,79,0.00,,SKC,0.00,VWS V14.00,2013-12-24 09:11:00,
2013-12-24 01:12:00,24.5,19.2,30.27,SSW,202,2.5,2.5,80,0.00,,SKC,0.00,VWS V14.00,2013-12-24 09:12:00,
2013-12-24 01:13:00,24.5,19.2,30.27,South,180,2.7,2.7,80,0.00,,SKC,0.00,VWS V14.00,2013-12-24 09:13:00,
2013-12-24 01:14:00,24.5,19.2,30.27,SSW,202,2.0,2.0,80,0.00,,SKC,0.00,VWS V14.00,2013-12-24 09:14:00,
2013-12-24 01:16:00,24.5,19.2,30.27,SSW,202,0.0,0.0,80,0.00,,SKC,0.00,VWS V14.00,2013-12-24 09:16:00,
2013-12-24 01:17:00,24.5,19.2,30.27,SSE,158,0.0,0.0,80,0.00,,SKC,0.00,VWS V14.00,2013-12-24 09:17:00,
2013-12-24 01:18:00,24.5,19.2,30.27,SE,135,2.5,2.5,80,0.00,,SKC,0.00,VWS V14.00,2013-12-24 09:18:00,
2013-12-24 01:20:00,24.1,18.9,30.27,SE,135,0.0,0.0,80,0.00,,SKC,0.00,VWS V14.00,2013-12-24 09:20:00,
2013-12-24 01:21:00,23.9,18.7,30.27,SE,135,0.0,0.0,80,0.00,,SKC,0.00,VWS V14.00,2013-12-24 09:21:00,
2013-12-24 01:22:00,23.9,18.7,30.27,SE,135,0.0,0.0,80,0.00,,SKC,0.00,VWS V14.00,2013-12-24 09:22:00,
2013-12-24 01:23:00,23.8,18.5,30.27,SE,135,0.0,0.0,80,0.00,,SKC,0.00,VWS V14.00,2013-12-24 09:23:00,
2013-12-24 01:25:00,23.6,18.3,30.27,SE,135,0.0,0.0,80,0.00,,SKC,0.00,VWS V14.00,2013-12-24 09:25:00,
2013-12-24 01:26:00,23.6,18.3,30.27,SE,135,0.0,0.0,80,0.00,,SKC,0.00,VWS V14.00,2013-12-24 09:26:00,
2013-12-24 01:27:00,23.6,18.3,30.27,SE,135,0.0,0.0,80,0.00,,SKC,0.00,VWS V14.00,2013-12-24 09:27:00,
2013-12-24 01:28:00,23.6,18.3,30.27,SE,135,0.0,0.0,80,0.00,,SKC,0.00,VWS V14.00,2013-12-24 09:28:00,
2013-12-24 01:30:00,23.6,18.3,30.30,SE,135,0.0,0.0,80,0.00,,SKC,0.00,VWS V14.00,2013-12-24 09:30:00,
2013-12-24 01:32:00,23.6,18.3,30.30,SE,135,0.0,0.0,80,0.00,,SKC,0.00,VWS V14.00,2013-12-24 09:32:00,
2013-12-24 01:33:00,23.6,18.3,30.30,SE,135,0.0,0.0,80,0.00,,SKC,0.00,VWS V14.00,2013-12-24 09:33:00,
2013-12-24 01:36:00,23.6,18.3,30.30,SSW,202,0.0,0.0,80,0.00,,SKC,0.00,VWS V14.00,2013-12-24 09:36:00,
2013-12-24 01:37:00,23.6,18.3,30.30,SW,225,0.0,0.0,80,0.00,,SKC,0.00,VWS V14.00,2013-12-24 09:37:00,
2013-12-24 01:38:00,23.6,18.3,30.30,SW,225,0.0,0.0,80,0.00,,SKC,0.00,VWS V14.00,2013-12-24 09:38:00,
2013-12-24 01:39:00,23.6,18.3,30.30,SW,225,0.0,0.0,80,0.00,,SKC,0.00,VWS V14.00,2013-12-24 09:39:00,
2013-12-24 01:41:00,23.8,18.5,30.30,West,270,2.7,2.7,80,0.00,,SKC,0.00,VWS V14.00,2013-12-24 09:41:00,
2013-12-24 01:42:00,24.5,19.5,30.30,SW,225,3.1,3.1,81,0.00,,SKC,0.00,VWS V14.00,2013-12-24 09:42:00,
2013-12-24 01:43:00,24.5,19.5,30.30,SW,225,1.3,1.3,81,0.00,,SKC,0.00,VWS V14.00,2013-12-24 09:43:00,
2013-12-24 01:44:00,24.5,19.5,30.27,SW,225,1.1,1.1,81,0.00,,SKC,0.00,VWS V14.00,2013-12-24 09:44:00,
2013-12-24 01:46:00,24.8,20.4,30.27,SSW,202,2.0,2.0,83,0.00,,SKC,0.00,VWS V14.00,2013-12-24 09:46:00,
2013-12-24 01:47:00,25.0,20.6,30.27,South,180,2.5,2.5,83,0.00,,SKC,0.00,VWS V14.00,2013-12-24 09:47:00,
2013-12-24 01:48:00,25.0,20.6,30.27,South,180,0.0,0.0,83,0.00,,SKC,0.00,VWS V14.00,2013-12-24 09:48:00,
2013-12-24 01:49:00,25.0,20.9,30.27,South,180,0.0,0.0,84,0.00,,SKC,0.00,VWS V14.00,2013-12-24 09:49:00,
2013-12-24 01:50:00,25.0,20.9,30.27,South,180,0.0,0.0,84,0.00,,SKC,0.00,VWS V14.00,2013-12-24 09:50:00,
2013-12-24 01:51:00,24.8,20.4,30.27,South,180,0.0,0.0,83,0.00,,SKC,0.00,VWS V14.00,2013-12-24 09:51:00,
2013-12-24 01:52:00,24.7,20.2,30.27,South,180,0.0,0.0,83,0.00,,SKC,0.00,VWS V14.00,2013-12-24 09:52:00,
2013-12-24 01:53:00,24.5,20.1,30.27,South,180,0.0,0.0,83,0.00,,SKC,0.00,VWS V14.00,2013-12-24 09:53:00,
2013-12-24 01:54:00,24.3,19.6,30.27,South,180,0.0,0.0,82,0.00,,SKC,0.00,VWS V14.00,2013-12-24 09:54:00,
2013-12-24 01:55:00,24.3,19.6,30.27,South,180,0.0,0.0,82,0.00,,SKC,0.00,VWS V14.00,2013-12-24 09:55:00,
2013-12-24 01:56:00,24.1,19.4,30.27,South,180,0.0,0.0,82,0.00,,SKC,0.00,VWS V14.00,2013-12-24 09:56:00,
2013-12-24 01:58:00,24.1,19.1,30.27,South,180,0.0,0.0,81,0.00,,SKC,0.00,VWS V14.00,2013-12-24 09:58:00,
2013-12-24 02:00:00,23.8,18.8,30.27,South,180,0.0,0.0,81,0.00,,SKC,0.00,VWS V14.00,2013-12-24 10:00:00,
2013-12-24 02:02:00,23.6,18.3,30.27,West,270,0.0,0.0,80,0.00,,SKC,0.00,VWS V14.00,2013-12-24 10:02:00,
2013-12-24 02:03:00,23.4,18.4,30.27,NW,315,0.0,0.0,81,0.00,,SKC,0.00,VWS V14.00,2013-12-24 10:03:00,
2013-12-24 02:05:00,23.2,18.0,30.27,NW,315,0.0,0.0,80,0.00,,SKC,0.00,VWS V14.00,2013-12-24 10:05:00,
2013-12-24 02:07:00,22.9,17.6,30.27,NW,315,0.0,0.0,80,0.00,,SKC,0.00,VWS V14.00,2013-12-24 10:07:00,
2013-12-24 02:08:00,22.9,17.6,30.27,WNW,292,0.0,0.0,80,0.00,,SKC,0.00,VWS V14.00,2013-12-24 10:08:00,
2013-12-24 02:09:00,22.7,17.5,30.27,WNW,292,0.0,0.0,80,0.00,,SKC,0.00,VWS V14.00,2013-12-24 10:09:00,
2013-12-24 02:10:00,22.7,17.5,30.27,WNW,292,0.0,0.0,80,0.00,,SKC,0.00,VWS V14.00,2013-12-24 10:10:00,
2013-12-24 02:11:00,22.5,17.0,30.27,WNW,292,0.0,0.0,79,0.00,,SKC,0.00,VWS V14.00,2013-12-24 10:11:00,
2013-12-24 02:12:00,22.5,17.0,30.27,West,270,0.0,0.0,79,0.00,,SKC,0.00,VWS V14.00,2013-12-24 10:12:00,
2013-12-24 02:13:00,22.5,17.3,30.30,West,270,0.0,0.0,80,0.00,,SKC,0.00,VWS V14.00,2013-12-24 10:13:00,
2013-12-24 02:14:00,22.5,17.3,30.30,West,270,0.0,0.0,80,0.00,,SKC,0.00,VWS V14.00,2013-12-24 10:14:00,
2013-12-24 02:16:00,22.5,17.3,30.30,West,270,0.0,0.0,80,0.00,,SKC,0.00,VWS V14.00,2013-12-24 10:16:00,
2013-12-24 02:17:00,22.5,17.3,30.30,West,270,0.0,0.0,80,0.00,,SKC,0.00,VWS V14.00,2013-12-24 10:17:00,
2013-12-24 02:19:00,22.5,17.3,30.30,West,270,0.0,0.0,80,0.00,,SKC,0.00,VWS V14.00,2013-12-24 10:19:00,
2013-12-24 02:20:00,22.7,17.5,30.30,West,270,0.0,0.0,80,0.00,,SKC,0.00,VWS V14.00,2013-12-24 10:20:00,
2013-12-24 02:21:00,22.9,17.6,30.30,West,270,0.0,0.0,80,0.00,,SKC,0.00,VWS V14.00,2013-12-24 10:21:00,
2013-12-24 02:22:00,23.0,18.1,30.30,West,270,0.0,0.0,81,0.00,,SKC,0.00,VWS V14.00,2013-12-24 10:22:00,
2013-12-24 02:24:00,22.9,18.2,30.30,West,270,0.0,0.0,82,0.00,,SKC,0.00,VWS V14.00,2013-12-24 10:24:00,
2013-12-24 02:25:00,22.9,18.2,30.30,West,270,0.0,0.0,82,0.00,,SKC,0.00,VWS V14.00,2013-12-24 10:25:00,
2013-12-24 02:26:00,22.9,18.2,30.30,West,270,0.0,0.0,82,0.00,,SKC,0.00,VWS V14.00,2013-12-24 10:26:00,
2013-12-24 02:27:00,22.9,18.2,30.30,SSE,158,1.6,1.6,82,0.00,,SKC,0.00,VWS V14.00,2013-12-24 10:27:00,
2013-12-24 02:29:00,23.2,18.5,30.30,SE,135,0.0,0.0,82,0.00,,SKC,0.00,VWS V14.00,2013-12-24 10:29:00,
2013-12-24 02:30:00,23.2,18.8,30.30,SE,135,0.0,0.0,83,0.00,,SKC,0.00,VWS V14.00,2013-12-24 10:30:00,
2013-12-24 02:31:00,23.4,19.0,30.30,SE,135,0.0,0.0,83,0.00,,SKC,0.00,VWS V14.00,2013-12-24 10:31:00,
2013-12-24 02:32:00,23.4,19.0,30.30,SE,135,0.0,0.0,83,0.00,,SKC,0.00,VWS V14.00,2013-12-24 10:32:00,
2013-12-24 02:34:00,23.6,19.2,30.30,South,180,2.0,2.0,83,0.00,,SKC,0.00,VWS V14.00,2013-12-24 10:34:00,
2013-12-24 02:35:00,23.8,19.4,30.30,South,180,2.2,2.2,83,0.00,,SKC,0.00,VWS V14.00,2013-12-24 10:35:00,
2013-12-24 02:36:00,24.1,19.7,30.30,South,180,0.0,0.0,83,0.00,,SKC,0.00,VWS V14.00,2013-12-24 10:36:00,
2013-12-24 02:37:00,24.3,19.9,30.30,South,180,2.9,2.9,83,0.00,,SKC,0.00,VWS V14.00,2013-12-24 10:37:00,
2013-12-24 02:39:00,24.5,20.4,30.30,SSW,202,0.0,0.0,84,0.00,,SKC,0.00,VWS V14.00,2013-12-24 10:39:00,
2013-12-24 02:40:00,24.7,20.5,30.30,SSW,202,0.9,0.9,84,0.00,,SKC,0.00,VWS V14.00,2013-12-24 10:40:00,
2013-12-24 02:41:00,24.8,20.7,30.30,SSW,202,0.9,0.9,84,0.00,,SKC,0.00,VWS V14.00,2013-12-24 10:41:00,
2013-12-24 02:42:00,24.8,20.7,30.30,SSW,202,0.0,0.0,84,0.00,,SKC,0.00,VWS V14.00,2013-12-24 10:42:00,
2013-12-24 02:44:00,24.8,20.7,30.27,SSW,202,0.0,0.0,84,0.00,,SKC,0.00,VWS V14.00,2013-12-24 10:44:00,
2013-12-24 02:45:00,24.7,20.5,30.27,SSW,202,0.0,0.0,84,0.00,,SKC,0.00,VWS V14.00,2013-12-24 10:45:00,
2013-12-24 02:46:00,24.7,20.5,30.27,SSW,202,0.0,0.0,84,0.00,,SKC,0.00,VWS V14.00,2013-12-24 10:46:00,
2013-12-24 02:47:00,24.7,20.5,30.27,SSW,202,0.0,0.0,84,0.00,,SKC,0.00,VWS V14.00,2013-12-24 10:47:00,
2013-12-24 02:49:00,25.0,20.9,30.27,SSW,202,0.0,0.0,84,0.00,,SKC,0.00,VWS V14.00,2013-12-24 10:49:00,
2013-12-24 02:50:00,25.0,20.9,30.27,SE,135,0.0,0.0,84,0.00,,SKC,0.00,VWS V14.00,2013-12-24 10:50:00,
2013-12-24 02:51:00,25.0,20.9,30.27,SSE,158,2.2,2.2,84,0.00,,SKC,0.00,VWS V14.00,2013-12-24 10:51:00,
2013-12-24 02:52:00,25.0,20.9,30.27,SE,135,1.3,1.3,84,0.00,,SKC,0.00,VWS V14.00,2013-12-24 10:52:00,
2013-12-24 02:55:00,25.0,20.9,30.27,SE,135,0.0,0.0,84,0.00,,SKC,0.00,VWS V14.00,2013-12-24 10:55:00,
2013-12-24 02:56:00,25.0,20.9,30.27,ESE,112,0.0,0.0,84,0.00,,SKC,0.00,VWS V14.00,2013-12-24 10:56:00,
2013-12-24 02:57:00,25.0,20.9,30.27,East,90,0.0,0.0,84,0.00,,SKC,0.00,VWS V14.00,2013-12-24 10:57:00,
2013-12-24 03:00:00,24.8,20.4,30.30,SSE,158,0.0,0.0,83,0.00,,SKC,0.00,VWS V14.00,2013-12-24 11:00:00,
2013-12-24 03:01:00,25.0,20.6,30.30,SSE,158,0.0,0.0,83,0.00,,SKC,0.00,VWS V14.00,2013-12-24 11:01:00,
2013-12-24 03:02:00,25.0,20.6,30.30,SE,135,0.0,0.0,83,0.00,,SKC,0.00,VWS V14.00,2013-12-24 11:02:00,
2013-12-24 03:05:00,25.6,21.4,30.30,South,180,2.2,2.2,84,0.00,,SKC,0.00,VWS V14.00,2013-12-24 11:05:00,
2013-12-24 03:06:00,25.9,22.0,30.30,South,180,5.4,5.4,85,0.00,,SKC,0.00,VWS V14.00,2013-12-24 11:06:00,
2013-12-24 03:07:00,26.1,22.2,30.30,South,180,3.6,3.6,85,0.00,,SKC,0.00,VWS V14.00,2013-12-24 11:07:00,
2013-12-24 03:08:00,26.1,22.2,30.30,South,180,3.6,3.6,85,0.00,,SKC,0.00,VWS V14.00,2013-12-24 11:08:00,
2013-12-24 03:10:00,26.3,22.7,30.30,South,180,4.0,4.0,86,0.00,,SKC,0.00,VWS V14.00,2013-12-24 11:10:00,
2013-12-24 03:11:00,26.5,22.9,30.30,South,180,5.4,5.4,86,0.00,,SKC,0.00,VWS V14.00,2013-12-24 11:11:00,
2013-12-24 03:12:00,26.5,23.1,30.30,South,180,5.8,5.8,87,0.00,,SKC,0.00,VWS V14.00,2013-12-24 11:12:00,
2013-12-24 03:13:00,26.5,23.1,30.30,SSE,158,5.6,5.6,87,0.00,,SKC,0.00,VWS V14.00,2013-12-24 11:13:00,
2013-12-24 03:15:00,26.6,23.3,30.30,South,180,4.0,4.0,87,0.00,,SKC,0.00,VWS V14.00,2013-12-24 11:15:00,
2013-12-24 03:16:00,26.6,23.0,30.30,South,180,3.8,3.8,86,0.00,,SKC,0.00,VWS V14.00,2013-12-24 11:16:00,
2013-12-24 03:17:00,26.6,23.0,30.30,South,180,3.1,3.1,86,0.00,,SKC,0.00,VWS V14.00,2013-12-24 11:17:00,
2013-12-24 03:18:00,26.6,22.8,30.30,South,180,3.4,3.4,85,0.00,,SKC,0.00,VWS V14.00,2013-12-24 11:18:00,
2013-12-24 03:20:00,26.5,22.0,30.30,South,180,2.9,2.9,83,0.00,,SKC,0.00,VWS V14.00,2013-12-24 11:20:00,
2013-12-24 03:21:00,26.5,22.0,30.30,SW,225,2.9,2.9,83,0.00,,SKC,0.00,VWS V14.00,2013-12-24 11:21:00,
2013-12-24 03:22:00,26.3,21.0,30.30,SW,225,2.9,2.9,80,0.00,,SKC,0.00,VWS V14.00,2013-12-24 11:22:00,
2013-12-24 03:23:00,26.3,21.0,30.30,SW,225,3.8,3.8,80,0.00,,SKC,0.00,VWS V14.00,2013-12-24 11:23:00,
2013-12-24 03:24:00,26.1,20.2,30.30,WSW,248,4.0,4.0,78,0.00,,SKC,0.00,VWS V14.00,2013-12-24 11:24:00,
2013-12-24 03:25:00,25.9,19.7,30.30,SW,225,3.8,3.8,77,0.00,,SKC,0.00,VWS V14.00,2013-12-24 11:25:00,
2013-12-24 03:26:00,25.7,19.2,30.30,WSW,248,2.5,2.5,76,0.00,,SKC,0.00,VWS V14.00,2013-12-24 11:26:00,
2013-12-24 03:27:00,25.7,19.2,30.30,WSW,248,1.6,1.6,76,0.00,,SKC,0.00,VWS V14.00,2013-12-24 11:27:00,
2013-12-24 03:28:00,25.7,19.2,30.30,WSW,248,0.0,0.0,76,0.00,,SKC,0.00,VWS V14.00,2013-12-24 11:28:00,
2013-12-24 03:29:00,25.4,18.9,30.30,WSW,248,0.0,0.0,76,0.00,,SKC,0.00,VWS V14.00,2013-12-24 11:29:00,
2013-12-24 03:30:00,25.2,18.4,30.30,WSW,248,0.0,0.0,75,0.00,,SKC,0.00,VWS V14.00,2013-12-24 11:30:00,
2013-12-24 03:32:00,25.0,18.2,30.30,SSE,158,1.1,1.1,75,0.00,,SKC,0.00,VWS V14.00,2013-12-24 11:32:00,
2013-12-24 03:33:00,25.0,18.2,30.30,SE,135,2.7,2.7,75,0.00,,SKC,0.00,VWS V14.00,2013-12-24 11:33:00,
2013-12-24 03:34:00,24.8,18.0,30.30,SE,135,2.0,2.0,75,0.00,,SKC,0.00,VWS V14.00,2013-12-24 11:34:00,
2013-12-24 03:36:00,24.8,18.0,30.30,SSE,158,2.0,2.0,75,0.00,,SKC,0.00,VWS V14.00,2013-12-24 11:36:00,
2013-12-24 03:37:00,24.8,18.0,30.30,SSE,158,0.0,0.0,75,0.00,,SKC,0.00,VWS V14.00,2013-12-24 11:37:00,
2013-12-24 03:38:00,24.8,18.0,30.30,SSE,158,0.0,0.0,75,0.00,,SKC,0.00,VWS V14.00,2013-12-24 11:38:00,
2013-12-24 03:39:00,24.8,18.0,30.30,SSE,158,0.0,0.0,75,0.00,,SKC,0.00,VWS V14.00,2013-12-24 11:39:00,
2013-12-24 03:41:00,24.7,17.9,30.30,SSE,158,0.0,0.0,75,0.00,,SKC,0.00,VWS V14.00,2013-12-24 11:41:00,
2013-12-24 03:42:00,24.5,17.7,30.30,East,90,0.0,0.0,75,0.00,,SKC,0.00,VWS V14.00,2013-12-24 11:42:00,
2013-12-24 03:43:00,24.5,17.7,30.30,East,90,0.0,0.0,75,0.00,,SKC,0.00,VWS V14.00,2013-12-24 11:43:00,
2013-12-24 03:44:00,24.3,17.5,30.30,ESE,112,0.0,0.0,75,0.00,,SKC,0.00,VWS V14.00,2013-12-24 11:44:00,
2013-12-24 03:45:00,24.3,17.5,30.30,SE,135,1.6,1.6,75,0.00,,SKC,0.00,VWS V14.00,2013-12-24 11:45:00,
2013-12-24 03:46:00,24.3,17.5,30.30,SSE,158,0.0,0.0,75,0.00,,SKC,0.00,VWS V14.00,2013-12-24 11:46:00,
2013-12-24 03:47:00,24.3,17.5,30.30,SSE,158,0.0,0.0,75,0.00,,SKC,0.00,VWS V14.00,2013-12-24 11:47:00,
2013-12-24 03:48:00,24.3,17.5,30.30,SSE,158,0.0,0.0,75,0.00,,SKC,0.00,VWS V14.00,2013-12-24 11:48:00,
2013-12-24 03:49:00,24.5,17.7,30.30,South,180,0.0,0.0,75,0.00,,SKC,0.00,VWS V14.00,2013-12-24 11:49:00,
2013-12-24 03:50:00,24.5,17.7,30.30,SSW,202,0.0,0.0,75,0.00,,SKC,0.00,VWS V14.00,2013-12-24 11:50:00,
2013-12-24 03:51:00,24.3,17.5,30.30,SSW,202,1.1,1.1,75,0.00,,SKC,0.00,VWS V14.00,2013-12-24 11:51:00,
2013-12-24 03:52:00,24.3,17.5,30.30,SE,135,2.0,2.0,75,0.00,,SKC,0.00,VWS V14.00,2013-12-24 11:52:00,
2013-12-24 03:53:00,24.3,17.5,30.30,South,180,2.7,2.7,75,0.00,,SKC,0.00,VWS V14.00,2013-12-24 11:53:00,
2013-12-24 03:54:00,24.5,18.0,30.30,South,180,1.3,1.3,76,0.00,,SKC,0.00,VWS V14.00,2013-12-24 11:54:00,
2013-12-24 03:55:00,24.5,18.0,30.30,SSE,158,1.3,1.3,76,0.00,,SKC,0.00,VWS V14.00,2013-12-24 11:55:00,
2013-12-24 03:56:00,24.5,18.0,30.30,SSE,158,0.0,0.0,76,0.00,,SKC,0.00,VWS V14.00,2013-12-24 11:56:00,
2013-12-24 03:57:00,24.5,18.0,30.30,South,180,2.7,2.7,76,0.00,,SKC,0.00,VWS V14.00,2013-12-24 11:57:00,
2013-12-24 03:58:00,24.7,18.2,30.30,South,180,1.1,1.1,76,0.00,,SKC,0.00,VWS V14.00,2013-12-24 11:58:00,
2013-12-24 03:59:00,24.7,18.2,30.30,South,180,0.0,0.0,76,0.00,,SKC,0.00,VWS V14.00,2013-12-24 11:59:00,
2013-12-24 04:00:00,24.8,18.7,30.30,South,180,0.0,0.0,77,0.00,,SKC,0.00,VWS V14.00,2013-12-24 12:00:00,
2013-12-24 04:02:00,25.0,18.8,30.30,South,180,0.0,0.0,77,0.00,,SKC,0.00,VWS V14.00,2013-12-24 12:02:00,
2013-12-24 04:04:00,25.0,18.8,30.30,SE,135,3.4,3.4,77,0.00,,SKC,0.00,VWS V14.00,2013-12-24 12:04:00,
2013-12-24 04:05:00,25.2,19.0,30.30,SSE,158,0.0,0.0,77,0.00,,SKC,0.00,VWS V14.00,2013-12-24 12:05:00,
2013-12-24 04:07:00,25.6,19.7,30.30,South,180,1.6,1.6,78,0.00,,SKC,0.00,VWS V14.00,2013-12-24 12:07:00,
2013-12-24 04:09:00,25.9,20.3,30.30,WSW,248,2.7,2.7,79,0.00,,SKC,0.00,VWS V14.00,2013-12-24 12:09:00,
2013-12-24 04:10:00,25.9,20.3,30.30,WSW,248,2.5,2.5,79,0.00,,SKC,0.00,VWS V14.00,2013-12-24 12:10:00,
2013-12-24 04:12:00,26.1,20.5,30.30,WSW,248,4.0,4.0,79,0.00,,SKC,0.00,VWS V14.00,2013-12-24 12:12:00,
2013-12-24 04:13:00,26.1,20.5,30.30,WSW,248,4.0,4.0,79,0.00,,SKC,0.00,VWS V14.00,2013-12-24 12:13:00,
2013-12-24 04:14:00,26.1,20.8,30.27,WSW,248,3.6,3.6,80,0.00,,SKC,0.00,VWS V14.00,2013-12-24 12:14:00,
2013-12-24 04:15:00,26.1,20.8,30.27,WSW,248,3.1,3.1,80,0.00,,SKC,0.00,VWS V14.00,2013-12-24 12:15:00,
2013-12-24 04:17:00,25.7,20.1,30.27,WSW,248,0.0,0.0,79,0.00,,SKC,0.00,VWS V14.00,2013-12-24 12:17:00,
2013-12-24 04:18:00,25.7,20.1,30.27,WSW,248,0.0,0.0,79,0.00,,SKC,0.00,VWS V14.00,2013-12-24 12:18:00,
2013-12-24 04:19:00,25.6,20.0,30.27,WSW,248,0.0,0.0,79,0.00,,SKC,0.00,VWS V14.00,2013-12-24 12:19:00,
2013-12-24 04:20:00,25.4,19.8,30.27,WSW,248,0.0,0.0,79,0.00,,SKC,0.00,VWS V14.00,2013-12-24 12:20:00,
2013-12-24 04:22:00,25.2,19.3,30.27,East,90,2.9,2.9,78,0.00,,SKC,0.00,VWS V14.00,2013-12-24 12:22:00,
2013-12-24 04:23:00,25.0,19.1,30.27,East,90,0.0,0.0,78,0.00,,SKC,0.00,VWS V14.00,2013-12-24 12:23:00,
2013-12-24 04:24:00,24.8,18.7,30.27,East,90,0.0,0.0,77,0.00,,SKC,0.00,VWS V14.00,2013-12-24 12:24:00,
2013-12-24 04:25:00,24.8,18.7,30.27,SE,135,0.0,0.0,77,0.00,,SKC,0.00,VWS V14.00,2013-12-24 12:25:00,
2013-12-24 04:26:00,24.8,18.7,30.27,SE,135,0.0,0.0,77,0.00,,SKC,0.00,VWS V14.00,2013-12-24 12:26:00,
2013-12-24 04:27:00,24.8,18.4,30.27,South,180,0.0,0.0,76,0.00,,SKC,0.00,VWS V14.00,2013-12-24 12:27:00,
2013-12-24 04:28:00,24.8,18.4,30.30,South,180,0.0,0.0,76,0.00,,SKC,0.00,VWS V14.00,2013-12-24 12:28:00,
2013-12-24 04:29:00,24.7,18.2,30.30,SSW,202,1.1,1.1,76,0.00,,SKC,0.00,VWS V14.00,2013-12-24 12:29:00,
2013-12-24 04:30:00,24.7,18.2,30.30,SSW,202,3.1,3.1,76,0.00,,SKC,0.00,VWS V14.00,2013-12-24 12:30:00,
2013-12-24 04:31:00,24.5,18.0,30.30,SW,225,3.4,3.4,76,0.00,,SKC,0.00,VWS V14.00,2013-12-24 12:31:00,
2013-12-24 04:32:00,24.7,18.2,30.30,SW,225,3.6,3.6,76,0.00,,SKC,0.00,VWS V14.00,2013-12-24 12:32:00,
2013-12-24 04:33:00,24.7,18.2,30.30,SW,225,4.0,4.0,76,0.00,,SKC,0.00,VWS V14.00,2013-12-24 12:33:00,
2013-12-24 04:34:00,24.5,18.0,30.30,SW,225,4.0,4.0,76,0.00,,SKC,0.00,VWS V14.00,2013-12-24 12:34:00,
2013-12-24 04:35:00,24.5,18.0,30.30,SW,225,3.1,3.1,76,0.00,,SKC,0.00,VWS V14.00,2013-12-24 12:35:00,
2013-12-24 04:36:00,24.5,18.0,30.30,SW,225,3.1,3.1,76,0.00,,SKC,0.00,VWS V14.00,2013-12-24 12:36:00,
2013-12-24 04:38:00,24.3,17.8,30.30,SSW,202,1.6,1.6,76,0.00,,SKC,0.00,VWS V14.00,2013-12-24 12:38:00,
2013-12-24 04:39:00,24.3,17.8,30.30,South,180,2.7,2.7,76,0.00,,SKC,0.00,VWS V14.00,2013-12-24 12:39:00,
2013-12-24 04:41:00,24.1,17.4,30.30,South,180,0.0,0.0,75,0.00,,SKC,0.00,VWS V14.00,2013-12-24 12:41:00,
2013-12-24 04:42:00,24.1,17.4,30.30,South,180,0.0,0.0,75,0.00,,SKC,0.00,VWS V14.00,2013-12-24 12:42:00,
2013-12-24 04:43:00,23.9,17.2,30.30,South,180,0.0,0.0,75,0.00,,SKC,0.00,VWS V14.00,2013-12-24 12:43:00,
2013-12-24 04:44:00,23.8,17.0,30.30,South,180,0.0,0.0,75,0.00,,SKC,0.00,VWS V14.00,2013-12-24 12:44:00,
2013-12-24 04:46:00,23.6,16.8,30.30,SW,225,0.0,0.0,75,0.00,,SKC,0.00,VWS V14.00,2013-12-24 12:46:00,
2013-12-24 04:47:00,23.6,16.5,30.30,WSW,248,0.0,0.0,74,0.00,,SKC,0.00,VWS V14.00,2013-12-24 12:47:00,
2013-12-24 04:48:00,23.6,16.8,30.30,WSW,248,0.0,0.0,75,0.00,,SKC,0.00,VWS V14.00,2013-12-24 12:48:00,
2013-12-24 04:49:00,23.6,16.8,30.30,WSW,248,0.0,0.0,75,0.00,,SKC,0.00,VWS V14.00,2013-12-24 12:49:00,
2013-12-24 04:51:00,23.6,16.8,30.30,WSW,248,0.0,0.0,75,0.00,,SKC,0.00,VWS V14.00,2013-12-24 12:51:00,
2013-12-24 04:52:00,23.4,17.0,30.30,NNE,22,2.7,2.7,76,0.00,,SKC,0.00,VWS V14.00,2013-12-24 12:52:00,
2013-12-24 04:53:00,23.4,17.0,30.30,NNE,22,0.0,0.0,76,0.00,,SKC,0.00,VWS V14.00,2013-12-24 12:53:00,
2013-12-24 04:54:00,23.2,16.8,30.30,NNE,22,0.0,0.0,76,0.00,,SKC,0.00,VWS V14.00,2013-12-24 12:54:00,
2013-12-24 04:56:00,22.9,16.1,30.30,NNE,22,0.0,0.0,75,0.00,,SKC,0.00,VWS V14.00,2013-12-24 12:56:00,
2013-12-24 04:57:00,22.9,16.1,30.30,NNE,22,0.0,0.0,75,0.00,,SKC,0.00,VWS V14.00,2013-12-24 12:57:00,
2013-12-24 04:58:00,22.5,15.8,30.30,NNE,22,0.0,0.0,75,0.00,,SKC,0.00,VWS V14.00,2013-12-24 12:58:00,
2013-12-24 04:59:00,22.3,15.3,30.30,NNE,22,0.0,0.0,74,0.00,,SKC,0.00,VWS V14.00,2013-12-24 12:59:00,
2013-12-24 05:00:00,22.3,15.3,30.30,NNE,22,0.0,0.0,74,0.00,,SKC,0.00,VWS V14.00,2013-12-24 13:00:00,
2013-12-24 05:01:00,22.1,15.1,30.30,NNE,22,0.0,0.0,74,0.00,,SKC,0.00,VWS V14.00,2013-12-24 13:01:00,
2013-12-24 05:02:00,22.1,15.4,30.30,NNE,22,0.0,0.0,75,0.00,,SKC,0.00,VWS V14.00,2013-12-24 13:02:00,
2013-12-24 05:03:00,22.0,15.3,30.30,NNE,22,0.0,0.0,75,0.00,,SKC,0.00,VWS V14.00,2013-12-24 13:03:00,
2013-12-24 05:05:00,22.0,15.3,30.30,NNE,22,0.0,0.0,75,0.00,,SKC,0.00,VWS V14.00,2013-12-24 13:05:00,
2013-12-24 05:06:00,22.0,15.3,30.30,SE,135,0.0,0.0,75,0.00,,SKC,0.00,VWS V14.00,2013-12-24 13:06:00,
2013-12-24 05:07:00,22.0,15.3,30.30,SE,135,0.0,0.0,75,0.00,,SKC,0.00,VWS V14.00,2013-12-24 13:07:00,
2013-12-24 05:09:00,22.0,15.3,30.30,SE,135,2.2,2.2,75,0.00,,SKC,0.00,VWS V14.00,2013-12-24 13:09:00,
2013-12-24 05:10:00,22.0,15.3,30.30,SE,135,0.0,0.0,75,0.00,,SKC,0.00,VWS V14.00,2013-12-24 13:10:00,
2013-12-24 05:12:00,22.0,15.3,30.30,NNW,338,0.0,0.0,75,0.00,,SKC,0.00,VWS V14.00,2013-12-24 13:12:00,
2013-12-24 05:14:00,21.8,15.4,30.30,NNW,338,0.0,0.0,76,0.00,,SKC,0.00,VWS V14.00,2013-12-24 13:14:00,
2013-12-24 05:15:00,21.6,15.2,30.30,NNW,338,0.0,0.0,76,0.00,,SKC,0.00,VWS V14.00,2013-12-24 13:15:00,
2013-12-24 05:17:00,21.4,15.0,30.30,NNW,338,0.0,0.0,76,0.00,,SKC,0.00,VWS V14.00,2013-12-24 13:17:00,
2013-12-24 05:19:00,21.2,14.9,30.30,NNW,338,0.0,0.0,76,0.00,,SKC,0.00,VWS V14.00,2013-12-24 13:19:00,
2013-12-24 05:20:00,21.2,14.9,30.30,NNW,338,0.0,0.0,76,0.00,,SKC,0.00,VWS V14.00,2013-12-24 13:20:00,
2013-12-24 05:22:00,21.2,14.9,30.30,ENE,68,0.0,0.0,76,0.00,,SKC,0.00,VWS V14.00,2013-12-24 13:22:00,
2013-12-24 05:23:00,21.2,14.9,30.30,East,90,0.0,0.0,76,0.00,,SKC,0.00,VWS V14.00,2013-12-24 13:23:00,
2013-12-24 05:24:00,21.2,15.2,30.30,ENE,68,0.0,0.0,77,0.00,,SKC,0.00,VWS V14.00,2013-12-24 13:24:00,
2013-12-24 05:25:00,21.2,15.2,30.30,ENE,68,0.0,0.0,77,0.00,,SKC,0.00,VWS V14.00,2013-12-24 13:25:00,
2013-12-24 05:27:00,21.2,15.2,30.30,West,270,3.6,3.6,77,0.00,,SKC,0.00,VWS V14.00,2013-12-24 13:27:00,
2013-12-24 05:28:00,21.2,15.2,30.30,West,270,2.7,2.7,77,0.00,,SKC,0.00,VWS V14.00,2013-12-24 13:28:00,
2013-12-24 05:29:00,21.6,15.5,30.30,West,270,3.1,3.1,77,0.00,,SKC,0.00,VWS V14.00,2013-12-24 13:29:00,
2013-12-24 05:30:00,21.6,15.5,30.30,West,270,3.6,3.6,77,0.00,,SKC,0.00,VWS V14.00,2013-12-24 13:30:00,
2013-12-24 05:31:00,21.8,15.7,30.30,WSW,248,2.5,2.5,77,0.00,,SKC,0.00,VWS V14.00,2013-12-24 13:31:00,
2013-12-24 05:32:00,22.0,16.2,30.30,West,270,1.1,1.1,78,0.00,,SKC,0.00,VWS V14.00,2013-12-24 13:32:00,
2013-12-24 05:33:00,22.0,16.2,30.30,West,270,0.0,0.0,78,0.00,,SKC,0.00,VWS V14.00,2013-12-24 13:33:00,
2013-12-24 05:34:00,22.0,16.2,30.30,West,270,0.0,0.0,78,0.00,,SKC,0.00,VWS V14.00,2013-12-24 13:34:00,
2013-12-24 05:35:00,22.0,16.2,30.30,West,270,1.6,1.6,78,0.00,,SKC,0.00,VWS V14.00,2013-12-24 13:35:00,
2013-12-24 05:36:00,22.0,16.5,30.30,West,270,0.0,0.0,79,0.00,,SKC,0.00,VWS V14.00,2013-12-24 13:36:00,
2013-12-24 05:37:00,21.8,16.3,30.30,South,180,0.0,0.0,79,0.00,,SKC,0.00,VWS V14.00,2013-12-24 13:37:00,
2013-12-24 05:38:00,21.6,16.1,30.30,South,180,0.0,0.0,79,0.00,,SKC,0.00,VWS V14.00,2013-12-24 13:38:00,
2013-12-24 05:39:00,21.4,15.9,30.30,South,180,0.0,0.0,79,0.00,,SKC,0.00,VWS V14.00,2013-12-24 13:39:00,
2013-12-24 05:40:00,21.4,15.9,30.30,South,180,0.0,0.0,79,0.00,,SKC,0.00,VWS V14.00,2013-12-24 13:40:00,
2013-12-24 05:41:00,21.2,15.5,30.30,South,180,0.0,0.0,78,0.00,,SKC,0.00,VWS V14.00,2013-12-24 13:41:00,
2013-12-24 05:42:00,21.2,15.5,30.30,South,180,0.0,0.0,78,0.00,,SKC,0.00,VWS V14.00,2013-12-24 13:42:00,
2013-12-24 05:43:00,21.2,15.5,30.27,SSW,202,0.0,0.0,78,0.00,,SKC,0.00,VWS V14.00,2013-12-24 13:43:00,
2013-12-24 05:44:00,21.2,15.5,30.27,SSW,202,0.0,0.0,78,0.00,,SKC,0.00,VWS V14.00,2013-12-24 13:44:00,
2013-12-24 05:45:00,20.9,15.1,30.27,SSW,202,0.0,0.0,78,0.00,,SKC,0.00,VWS V14.00,2013-12-24 13:45:00,
2013-12-24 05:46:00,20.9,14.8,30.27,SSW,202,0.0,0.0,77,0.00,,SKC,0.00,VWS V14.00,2013-12-24 13:46:00,
2013-12-24 05:48:00,20.7,14.6,30.27,SSW,202,0.0,0.0,77,0.00,,SKC,0.00,VWS V14.00,2013-12-24 13:48:00,
2013-12-24 05:49:00,20.7,14.6,30.27,SE,135,3.4,3.4,77,0.00,,SKC,0.00,VWS V14.00,2013-12-24 13:49:00,
2013-12-24 05:50:00,20.7,14.6,30.27,SE,135,1.1,1.1,77,0.00,,SKC,0.00,VWS V14.00,2013-12-24 13:50:00,
2013-12-24 05:51:00,20.9,14.8,30.27,SW,225,0.0,0.0,77,0.00,,SKC,0.00,VWS V14.00,2013-12-24 13:51:00,
2013-12-24 05:53:00,21.1,15.0,30.27,WSW,248,1.6,1.6,77,0.00,,SKC,0.00,VWS V14.00,2013-12-24 13:53:00,
2013-12-24 05:54:00,21.4,15.6,30.27,WSW,248,0.0,0.0,78,0.00,,SKC,0.00,VWS V14.00,2013-12-24 13:54:00,
2013-12-24 05:55:00,21.4,15.6,30.27,WSW,248,0.0,0.0,78,0.00,,SKC,0.00,VWS V14.00,2013-12-24 13:55:00,
2013-12-24 05:56:00,21.4,15.6,30.27,WSW,248,2.0,2.0,78,0.00,,SKC,0.00,VWS V14.00,2013-12-24 13:56:00,
2013-12-24 05:58:00,21.8,16.0,30.30,West,270,2.0,2.0,78,0.00,,SKC,0.00,VWS V14.00,2013-12-24 13:58:00,
2013-12-24 05:59:00,21.8,16.0,30.30,West,270,2.5,2.5,78,0.00,,SKC,0.00,VWS V14.00,2013-12-24 13:59:00,
2013-12-24 06:00:00,21.8,16.0,30.30,West,270,0.0,0.0,78,0.00,,SKC,0.00,VWS V14.00,2013-12-24 14:00:00,
2013-12-24 06:02:00,21.6,16.1,30.30,West,270,0.0,0.0,79,0.00,,SKC,0.00,VWS V14.00,2013-12-24 14:02:00,
2013-12-24 06:03:00,21.6,16.1,30.30,West,270,0.0,0.0,79,0.00,,SKC,0.00,VWS V14.00,2013-12-24 14:03:00,
2013-12-24 06:04:00,21.6,16.1,30.30,West,270,0.0,0.0,79,0.00,,SKC,0.00,VWS V14.00,2013-12-24 14:04:00,
2013-12-24 06:05:00,21.6,16.1,30.30,West,270,0.0,0.0,79,0.00,,SKC,0.00,VWS V14.00,2013-12-24 14:05:00,
2013-12-24 06:07:00,21.2,15.8,30.30,ESE,112,2.5,2.5,79,0.00,,SKC,0.00,VWS V14.00,2013-12-24 14:07:00,
2013-12-24 06:09:00,21.2,15.8,30.30,SSE,158,1.6,1.6,79,0.00,,SKC,0.00,VWS V14.00,2013-12-24 14:09:00,
2013-12-24 06:10:00,21.2,15.8,30.30,SSE,158,1.3,1.3,79,0.00,,SKC,0.00,VWS V14.00,2013-12-24 14:10:00,
2013-12-24 06:12:00,21.2,15.8,30.30,SSW,202,0.0,0.0,79,0.00,,SKC,0.00,VWS V14.00,2013-12-24 14:12:00,
2013-12-24 06:14:00,21.1,15.3,30.30,SSW,202,0.0,0.0,78,0.00,,SKC,0.00,VWS V14.00,2013-12-24 14:14:00,
2013-12-24 06:15:00,21.1,15.3,30.30,SSW,202,0.0,0.0,78,0.00,,SKC,0.00,VWS V14.00,2013-12-24 14:15:00,
2013-12-24 06:16:00,21.1,15.3,30.30,SSW,202,0.0,0.0,78,0.00,,SKC,0.00,VWS V14.00,2013-12-24 14:16:00,
2013-12-24 06:17:00,21.1,15.3,30.30,SSW,202,0.0,0.0,78,0.00,,SKC,0.00,VWS V14.00,2013-12-24 14:17:00,
2013-12-24 06:19:00,21.1,15.3,30.30,SSW,202,0.0,0.0,78,0.00,,SKC,0.00,VWS V14.00,2013-12-24 14:19:00,
2013-12-24 06:20:00,20.9,15.1,30.30,SSW,202,0.0,0.0,78,0.00,,SKC,0.00,VWS V14.00,2013-12-24 14:20:00,
2013-12-24 06:21:00,20.9,15.1,30.30,SSW,202,0.0,0.0,78,0.00,,SKC,0.00,VWS V14.00,2013-12-24 14:21:00,
2013-12-24 06:22:00,20.7,14.9,30.30,SSW,202,0.0,0.0,78,0.00,,SKC,0.00,VWS V14.00,2013-12-24 14:22:00,
2013-12-24 06:25:00,20.3,14.6,30.30,SSW,202,0.0,0.0,78,0.00,,SKC,0.00,VWS V14.00,2013-12-24 14:25:00,
2013-12-24 06:26:00,20.3,14.3,30.30,SSW,202,0.0,0.0,77,0.00,,SKC,0.00,VWS V14.00,2013-12-24 14:26:00,
2013-12-24 06:28:00,20.2,14.1,30.30,SSW,202,0.0,0.0,77,0.00,,SKC,0.00,VWS V14.00,2013-12-24 14:28:00,
2013-12-24 06:30:00,20.0,13.9,30.33,SSW,202,0.0,0.0,77,0.00,,SKC,0.00,VWS V14.00,2013-12-24 14:30:00,
2013-12-24 06:31:00,20.0,13.9,30.33,SSW,202,0.0,0.0,77,0.00,,SKC,0.00,VWS V14.00,2013-12-24 14:31:00,
2013-12-24 06:33:00,19.8,13.8,30.33,SSW,202,0.0,0.0,77,0.00,,SKC,0.00,VWS V14.00,2013-12-24 14:33:00,
2013-12-24 06:35:00,19.8,13.8,30.33,SSW,202,0.0,0.0,77,0.00,,SKC,0.00,VWS V14.00,2013-12-24 14:35:00,
2013-12-24 06:36:00,19.6,13.6,30.33,SSW,202,0.0,0.0,77,0.00,,SKC,0.00,VWS V14.00,2013-12-24 14:36:00,
2013-12-24 06:38:00,19.4,13.4,30.33,SSW,202,0.0,0.0,77,0.00,,SKC,0.00,VWS V14.00,2013-12-24 14:38:00,
2013-12-24 06:40:00,19.4,13.4,30.33,SSW,202,0.0,0.0,77,0.00,,SKC,0.00,VWS V14.00,2013-12-24 14:40:00,
2013-12-24 06:41:00,19.4,13.4,30.33,SSW,202,0.0,0.0,77,0.00,,SKC,0.00,VWS V14.00,2013-12-24 14:41:00,
2013-12-24 06:43:00,19.4,13.7,30.30,WSW,248,0.0,0.0,78,0.00,,SKC,0.00,VWS V14.00,2013-12-24 14:43:00,
2013-12-24 06:45:00,19.8,14.1,30.30,WSW,248,0.0,0.0,78,0.00,,SKC,0.00,VWS V14.00,2013-12-24 14:45:00,
2013-12-24 06:46:00,19.8,14.1,30.30,WSW,248,0.0,0.0,78,0.00,,SKC,0.00,VWS V14.00,2013-12-24 14:46:00,
2013-12-24 06:47:00,19.8,14.1,30.30,WSW,248,0.0,0.0,78,0.00,,SKC,0.00,VWS V14.00,2013-12-24 14:47:00,
2013-12-24 06:48:00,19.6,13.9,30.30,WSW,248,0.0,0.0,78,0.00,,SKC,0.00,VWS V14.00,2013-12-24 14:48:00,
2013-12-24 06:51:00,19.4,14.0,30.30,WSW,248,0.0,0.0,79,0.00,,SKC,0.00,VWS V14.00,2013-12-24 14:51:00,
2013-12-24 06:52:00,19.4,14.0,30.30,WSW,248,0.0,0.0,79,0.00,,SKC,0.00,VWS V14.00,2013-12-24 14:52:00,
2013-12-24 06:53:00,19.6,14.2,30.30,WSW,248,0.0,0.0,79,0.00,,SKC,0.00,VWS V14.00,2013-12-24 14:53:00,
2013-12-24 06:56:00,19.4,14.0,30.30,WSW,248,0.0,0.0,79,0.00,,SKC,0.00,VWS V14.00,2013-12-24 14:56:00,
2013-12-24 06:57:00,19.3,13.8,30.30,WSW,248,0.0,0.0,79,0.00,,SKC,0.00,VWS V14.00,2013-12-24 14:57:00,
2013-12-24 06:59:00,19.3,13.8,30.33,ESE,112,0.0,0.0,79,0.00,,SKC,0.00,VWS V14.00,2013-12-24 14:59:00,
2013-12-24 07:01:00,19.3,13.8,30.33,ESE,112,0.0,0.0,79,0.00,,SKC,0.00,VWS V14.00,2013-12-24 15:01:00,
2013-12-24 07:03:00,19.3,13.8,30.33,ESE,112,0.0,0.0,79,0.00,,SKC,0.00,VWS V14.00,2013-12-24 15:03:00,
2013-12-24 07:04:00,19.3,13.8,30.33,ESE,112,0.0,0.0,79,0.00,,SKC,0.00,VWS V14.00,2013-12-24 15:04:00,
2013-12-24 07:06:00,19.3,13.8,30.33,ESE,112,0.0,0.0,79,0.00,,SKC,0.00,VWS V14.00,2013-12-24 15:06:00,
2013-12-24 07:07:00,19.4,14.0,30.33,ESE,112,0.9,0.9,79,0.00,,SKC,0.00,VWS V14.00,2013-12-24 15:07:00,
2013-12-24 07:08:00,19.4,14.3,30.33,SE,135,0.0,0.0,80,0.00,,SKC,0.00,VWS V14.00,2013-12-24 15:08:00,
2013-12-24 07:09:00,19.4,14.3,30.33,WNW,292,0.0,0.0,80,0.00,,SKC,0.00,VWS V14.00,2013-12-24 15:09:00,
2013-12-24 07:11:00,19.4,14.3,30.33,West,270,0.0,0.0,80,0.00,,SKC,0.00,VWS V14.00,2013-12-24 15:11:00,
2013-12-24 07:12:00,19.4,14.3,30.33,West,270,0.0,0.0,80,0.00,,SKC,0.00,VWS V14.00,2013-12-24 15:12:00,
2013-12-24 07:13:00,19.4,14.3,30.33,West,270,0.0,0.0,80,0.00,,SKC,0.00,VWS V14.00,2013-12-24 15:13:00,
2013-12-24 07:14:00,19.4,14.3,30.33,West,270,0.0,0.0,80,0.00,,SKC,0.00,VWS V14.00,2013-12-24 15:14:00,
2013-12-24 07:16:00,19.6,14.5,30.33,West,270,0.0,0.0,80,0.00,,SKC,0.00,VWS V14.00,2013-12-24 15:16:00,
2013-12-24 07:17:00,19.6,14.5,30.33,West,270,0.0,0.0,80,0.00,,SKC,0.00,VWS V14.00,2013-12-24 15:17:00,
2013-12-24 07:18:00,19.8,14.6,30.33,West,270,2.0,2.0,80,0.00,,SKC,0.00,VWS V14.00,2013-12-24 15:18:00,
2013-12-24 07:19:00,20.0,14.5,30.33,West,270,2.2,2.2,79,0.00,,SKC,0.00,VWS V14.00,2013-12-24 15:19:00,
2013-12-24 07:21:00,20.0,14.5,30.33,West,270,1.1,1.1,79,0.00,,SKC,0.00,VWS V14.00,2013-12-24 15:21:00,
2013-12-24 07:22:00,20.2,14.7,30.33,West,270,0.0,0.0,79,0.00,,SKC,0.00,VWS V14.00,2013-12-24 15:22:00,
2013-12-24 07:23:00,20.3,15.2,30.33,North,0,0.0,0.0,80,0.00,,SKC,0.00,VWS V14.00,2013-12-24 15:23:00,
2013-12-24 07:24:00,20.3,15.2,30.33,North,0,0.0,0.0,80,0.00,,SKC,0.00,VWS V14.00,2013-12-24 15:24:00,
2013-12-24 07:26:00,21.1,16.2,30.33,North,0,0.0,0.0,81,0.00,,SKC,0.00,VWS V14.00,2013-12-24 15:26:00,
2013-12-24 07:27:00,21.4,16.5,30.33,North,0,0.0,0.0,81,0.00,,SKC,0.00,VWS V14.00,2013-12-24 15:27:00,
2013-12-24 07:29:00,22.0,17.0,30.33,East,90,0.0,0.0,81,0.00,,SKC,0.00,VWS V14.00,2013-12-24 15:29:00,
2013-12-24 07:30:00,22.3,17.4,30.33,East,90,0.0,0.0,81,0.00,,SKC,0.00,VWS V14.00,2013-12-24 15:30:00,
2013-12-24 07:31:00,22.5,17.3,30.33,East,90,0.0,0.0,80,0.00,,SKC,0.00,VWS V14.00,2013-12-24 15:31:00,
2013-12-24 07:32:00,22.7,17.5,30.33,East,90,0.0,0.0,80,0.00,,SKC,0.00,VWS V14.00,2013-12-24 15:32:00,
2013-12-24 07:34:00,23.6,18.0,30.33,East,90,0.0,0.0,79,0.00,,SKC,0.00,VWS V14.00,2013-12-24 15:34:00,
2013-12-24 07:36:00,24.5,18.9,30.33,East,90,0.0,0.0,79,0.00,,SKC,0.00,VWS V14.00,2013-12-24 15:36:00,
2013-12-24 07:37:00,24.5,18.9,30.33,East,90,0.0,0.0,79,0.00,,SKC,0.00,VWS V14.00,2013-12-24 15:37:00,
2013-12-24 07:38:00,24.7,18.8,30.33,ENE,68,0.0,0.0,78,0.00,,SKC,0.00,VWS V14.00,2013-12-24 15:38:00,
2013-12-24 07:39:00,24.8,18.7,30.33,ENE,68,0.0,0.0,77,0.00,,SKC,0.00,VWS V14.00,2013-12-24 15:39:00,
2013-12-24 07:40:00,25.0,18.5,30.33,ENE,68,0.0,0.0,76,0.00,,SKC,0.00,VWS V14.00,2013-12-24 15:40:00,
2013-12-24 07:42:00,25.9,19.1,30.33,ENE,68,0.0,0.0,75,0.00,,SKC,0.00,VWS V14.00,2013-12-24 15:42:00,
2013-12-24 07:43:00,26.3,19.5,30.33,East,90,0.0,0.0,75,0.00,,SKC,0.00,VWS V14.00,2013-12-24 15:43:00,
2013-12-24 07:44:00,26.5,19.3,30.33,East,90,0.0,0.0,74,0.00,,SKC,0.00,VWS V14.00,2013-12-24 15:44:00,
2013-12-24 07:45:00,26.6,19.2,30.33,ENE,68,0.0,0.0,73,0.00,,SKC,0.00,VWS V14.00,2013-12-24 15:45:00,
2013-12-24 07:47:00,27.0,19.5,30.33,ENE,68,0.0,0.0,73,0.00,,SKC,0.00,VWS V14.00,2013-12-24 15:47:00,
2013-12-24 07:48:00,27.7,20.2,30.33,ENE,68,0.0,0.0,73,0.00,,SKC,0.00,VWS V14.00,2013-12-24 15:48:00,
2013-12-24 07:49:00,28.1,20.2,30.33,ENE,68,0.0,0.0,72,0.00,,SKC,0.00,VWS V14.00,2013-12-24 15:49:00,
2013-12-24 07:51:00,28.3,20.1,30.33,ENE,68,0.0,0.0,71,0.00,,SKC,0.00,VWS V14.00,2013-12-24 15:51:00,
2013-12-24 07:52:00,28.3,19.8,30.33,ENE,68,0.0,0.0,70,0.00,,SKC,0.00,VWS V14.00,2013-12-24 15:52:00,
2013-12-24 07:53:00,28.6,19.8,30.33,ENE,68,0.0,0.0,69,0.00,,SKC,0.00,VWS V14.00,2013-12-24 15:53:00,
2013-12-24 07:54:00,28.8,19.9,30.33,ENE,68,0.0,0.0,69,0.00,,SKC,0.00,VWS V14.00,2013-12-24 15:54:00,
2013-12-24 07:56:00,29.0,18.7,30.33,East,90,0.0,0.0,65,0.00,,SKC,0.00,VWS V14.00,2013-12-24 15:56:00,
2013-12-24 07:57:00,29.0,19.4,30.33,East,90,0.0,0.0,67,0.00,,SKC,0.00,VWS V14.00,2013-12-24 15:57:00,
2013-12-24 07:58:00,29.0,19.8,30.33,ESE,112,0.0,0.0,68,0.00,,SKC,0.00,VWS V14.00,2013-12-24 15:58:00,
2013-12-24 07:59:00,29.3,20.5,30.33,ESE,112,0.0,0.0,69,0.00,,SKC,0.00,VWS V14.00,2013-12-24 15:59:00,
2013-12-24 08:00:00,29.7,20.8,30.33,ESE,112,0.0,0.0,69,0.00,,SKC,0.00,VWS V14.00,2013-12-24 16:00:00,
2013-12-24 08:01:00,30.1,20.1,30.33,East,90,0.9,0.9,66,0.00,,SKC,0.00,VWS V14.00,2013-12-24 16:01:00,
2013-12-24 08:02:00,30.1,20.1,30.33,East,90,0.0,0.0,66,0.00,,SKC,0.00,VWS V14.00,2013-12-24 16:02:00,
2013-12-24 08:03:00,30.1,20.1,30.33,East,90,0.0,0.0,66,0.00,,SKC,0.00,VWS V14.00,2013-12-24 16:03:00,
2013-12-24 08:04:00,30.4,20.4,30.33,East,90,0.0,0.0,66,0.00,,SKC,0.00,VWS V14.00,2013-12-24 16:04:00,
2013-12-24 08:05:00,30.6,20.6,30.33,East,90,0.0,0.0,66,0.00,,SKC,0.00,VWS V14.00,2013-12-24 16:05:00,
2013-12-24 08:06:00,31.3,21.3,30.33,East,90,0.0,0.0,66,0.00,,SKC,0.00,VWS V14.00,2013-12-24 16:06:00,
2013-12-24 08:07:00,31.3,21.3,30.33,East,90,0.0,0.0,66,0.00,,SKC,0.00,VWS V14.00,2013-12-24 16:07:00,
2013-12-24 08:08:00,31.5,21.5,30.33,East,90,0.0,0.0,66,0.00,,SKC,0.00,VWS V14.00,2013-12-24 16:08:00,
2013-12-24 08:09:00,31.9,21.8,30.33,East,90,0.0,0.0,66,0.00,,SKC,0.00,VWS V14.00,2013-12-24 16:09:00,
2013-12-24 08:10:00,31.9,22.5,30.33,East,90,0.0,0.0,68,0.00,,SKC,0.00,VWS V14.00,2013-12-24 16:10:00,
2013-12-24 08:11:00,31.9,22.5,30.33,East,90,0.0,0.0,68,0.00,,SKC,0.00,VWS V14.00,2013-12-24 16:11:00,
2013-12-24 08:12:00,31.9,22.9,30.33,East,90,0.0,0.0,69,0.00,,SKC,0.00,VWS V14.00,2013-12-24 16:12:00,
2013-12-24 08:13:00,32.0,22.7,30.33,East,90,0.0,0.0,68,0.00,,SKC,0.00,VWS V14.00,2013-12-24 16:13:00,
2013-12-24 08:14:00,32.0,23.0,30.36,SE,135,0.0,0.0,69,0.00,,SKC,0.00,VWS V14.00,2013-12-24 16:14:00,
2013-12-24 08:15:00,32.4,23.7,30.36,SE,135,0.0,0.0,70,0.00,,SKC,0.00,VWS V14.00,2013-12-24 16:15:00,
2013-12-24 08:17:00,32.6,23.9,30.36,SE,135,0.0,0.0,70,0.00,,SKC,0.00,VWS V14.00,2013-12-24 16:17:00,
2013-12-24 08:18:00,32.4,23.7,30.36,SE,135,0.0,0.0,70,0.00,,SKC,0.00,VWS V14.00,2013-12-24 16:18:00,
2013-12-24 08:20:00,34.0,24.2,30.36,SE,135,0.0,0.0,67,0.00,,SKC,0.00,VWS V14.00,2013-12-24 16:20:00,
2013-12-24 08:22:00,33.8,24.1,30.36,SE,135,0.0,0.0,67,0.00,,SKC,0.00,VWS V14.00,2013-12-24 16:22:00,
2013-12-24 08:23:00,33.8,24.1,30.36,SE,135,0.0,0.0,67,0.00,,SKC,0.00,VWS V14.00,2013-12-24 16:23:00,
2013-12-24 08:25:00,34.4,23.9,30.36,SE,135,0.0,0.0,65,0.00,,SKC,0.00,VWS V14.00,2013-12-24 16:25:00,
2013-12-24 08:26:00,34.4,23.9,30.36,SE,135,0.0,0.0,65,0.00,,SKC,0.00,VWS V14.00,2013-12-24 16:26:00,
2013-12-24 08:27:00,34.9,24.4,30.36,WSW,248,0.0,0.0,65,0.00,,SKC,0.00,VWS V14.00,2013-12-24 16:27:00,
2013-12-24 08:28:00,35.1,24.5,30.36,WSW,248,0.0,0.0,65,0.00,,SKC,0.00,VWS V14.00,2013-12-24 16:28:00,
2013-12-24 08:29:00,35.1,24.5,30.36,WSW,248,0.0,0.0,65,0.00,,SKC,0.00,VWS V14.00,2013-12-24 16:29:00,
2013-12-24 08:31:00,35.1,23.4,30.36,WSW,248,0.0,0.0,62,0.00,,SKC,0.00,VWS V14.00,2013-12-24 16:31:00,
2013-12-24 08:32:00,35.3,23.6,30.36,West,270,0.0,0.0,62,0.00,,SKC,0.00,VWS V14.00,2013-12-24 16:32:00,
2013-12-24 08:33:00,35.1,22.6,30.36,West,270,2.5,2.5,60,0.00,,SKC,0.00,VWS V14.00,2013-12-24 16:33:00,
2013-12-24 08:34:00,34.9,21.7,30.36,West,270,2.5,2.5,58,0.00,,SKC,0.00,VWS V14.00,2013-12-24 16:34:00,
2013-12-24 08:36:00,34.7,19.8,30.36,West,270,2.5,2.5,54,0.00,,SKC,0.00,VWS V14.00,2013-12-24 16:36:00,
2013-12-24 08:37:00,34.9,20.0,30.36,SW,225,1.1,1.1,54,0.00,,SKC,0.00,VWS V14.00,2013-12-24 16:37:00,
2013-12-24 08:38:00,34.9,20.0,30.36,SW,225,0.0,0.0,54,0.00,,SKC,0.00,VWS V14.00,2013-12-24 16:38:00,
2013-12-24 08:39:00,34.9,19.5,30.36,SW,225,0.0,0.0,53,0.00,,SKC,0.00,VWS V14.00,2013-12-24 16:39:00,
2013-12-24 08:41:00,35.1,19.3,30.36,West,270,0.9,0.9,52,0.00,,SKC,0.00,VWS V14.00,2013-12-24 16:41:00,
2013-12-24 08:42:00,35.3,19.4,30.36,West,270,0.9,0.9,52,0.00,,SKC,0.00,VWS V14.00,2013-12-24 16:42:00,
2013-12-24 08:43:00,35.5,19.1,30.36,West,270,1.6,1.6,51,0.00,,SKC,0.00,VWS V14.00,2013-12-24 16:43:00,
2013-12-24 08:44:00,35.5,19.1,30.33,WNW,292,1.1,1.1,51,0.00,,SKC,0.00,VWS V14.00,2013-12-24 16:44:00,
2013-12-24 08:46:00,36.0,18.7,30.33,WNW,292,0.9,0.9,49,0.00,,SKC,0.00,VWS V14.00,2013-12-24 16:46:00,
2013-12-24 08:47:00,36.0,18.7,30.33,WNW,292,0.0,0.0,49,0.00,,SKC,0.00,VWS V14.00,2013-12-24 16:47:00,
2013-12-24 08:48:00,36.9,19.5,30.33,NW,315,0.0,0.0,49,0.00,,SKC,0.00,VWS V14.00,2013-12-24 16:48:00,
2013-12-24 08:49:00,36.9,19.5,30.33,North,0,0.0,0.0,49,0.00,,SKC,0.00,VWS V14.00,2013-12-24 16:49:00,
2013-12-24 08:51:00,36.5,18.7,30.33,North,0,0.0,0.0,48,0.00,,SKC,0.00,VWS V14.00,2013-12-24 16:51:00,
2013-12-24 08:52:00,36.5,18.7,30.33,North,0,0.0,0.0,48,0.00,,SKC,0.00,VWS V14.00,2013-12-24 16:52:00,
2013-12-24 08:53:00,37.4,20.0,30.33,NNE,22,0.0,0.0,49,0.00,,SKC,0.00,VWS V14.00,2013-12-24 16:53:00,
2013-12-24 08:54:00,37.6,20.2,30.33,NNE,22,0.0,0.0,49,0.00,,SKC,0.00,VWS V14.00,2013-12-24 16:54:00,
2013-12-24 08:56:00,38.2,20.7,30.33,NE,45,0.0,0.0,49,0.00,,SKC,0.00,VWS V14.00,2013-12-24 16:56:00,
2013-12-24 08:57:00,38.5,21.0,30.33,NE,45,0.0,0.0,49,0.00,,SKC,0.00,VWS V14.00,2013-12-24 16:57:00,
2013-12-24 08:58:00,38.9,20.9,30.33,NE,45,0.0,0.0,48,0.00,,SKC,0.00,VWS V14.00,2013-12-24 16:58:00,
2013-12-24 08:59:00,39.1,21.5,30.36,NE,45,0.9,0.9,49,0.00,,SKC,0.00,VWS V14.00,2013-12-24 16:59:00,
2013-12-24 09:02:00,39.4,20.9,30.36,East,90,0.0,0.0,47,0.00,,SKC,0.00,VWS V14.00,2013-12-24 17:02:00,
2013-12-24 09:03:00,39.8,21.2,30.36,East,90,0.0,0.0,47,0.00,,SKC,0.00,VWS V14.00,2013-12-24 17:03:00,
2013-12-24 09:04:00,40.1,21.5,30.36,East,90,0.0,0.0,47,0.00,,SKC,0.00,VWS V14.00,2013-12-24 17:04:00,
2013-12-24 09:07:00,40.7,21.0,30.36,East,90,0.0,0.0,45,0.00,,SKC,0.00,VWS V14.00,2013-12-24 17:07:00,
2013-12-24 09:08:00,40.1,20.0,30.36,East,90,0.0,0.0,44,0.00,,SKC,0.00,VWS V14.00,2013-12-24 17:08:00,
2013-12-24 09:09:00,40.1,20.0,30.36,East,90,0.0,0.0,44,0.00,,SKC,0.00,VWS V14.00,2013-12-24 17:09:00,
2013-12-24 09:12:00,39.8,20.2,30.36,East,90,0.0,0.0,45,0.00,,SKC,0.00,VWS V14.00,2013-12-24 17:12:00,
2013-12-24 09:14:00,40.9,22.2,30.36,NNE,22,0.0,0.0,47,0.00,,SKC,0.00,VWS V14.00,2013-12-24 17:14:00,
2013-12-24 09:17:00,42.5,22.1,30.36,NNE,22,0.0,0.0,44,0.00,,SKC,0.00,VWS V14.00,2013-12-24 17:17:00,
2013-12-24 09:19:00,42.8,20.8,30.36,East,90,0.0,0.0,41,0.00,,SKC,0.00,VWS V14.00,2013-12-24 17:19:00,
2013-12-24 09:22:00,41.6,19.1,30.36,East,90,0.0,0.0,40,0.00,,SKC,0.00,VWS V14.00,2013-12-24 17:22:00,
2013-12-24 09:24:00,41.4,20.0,30.36,ESE,112,0.0,0.0,42,0.00,,SKC,0.00,VWS V14.00,2013-12-24 17:24:00,
2013-12-24 09:25:00,41.2,20.4,30.36,East,90,0.0,0.0,43,0.00,,SKC,0.00,VWS V14.00,2013-12-24 17:25:00,
2013-12-24 09:27:00,40.5,19.2,30.36,SE,135,0.0,0.0,42,0.00,,SKC,0.00,VWS V14.00,2013-12-24 17:27:00,
2013-12-24 09:29:00,40.5,18.1,30.36,ESE,112,0.0,0.0,40,0.00,,SKC,0.00,VWS V14.00,2013-12-24 17:29:00,
2013-12-24 09:30:00,40.5,18.1,30.36,SE,135,0.0,0.0,40,0.00,,SKC,0.00,VWS V14.00,2013-12-24 17:30:00,
2013-12-24 09:32:00,40.3,17.9,30.36,ESE,112,0.0,0.0,40,0.00,,SKC,0.00,VWS V14.00,2013-12-24 17:32:00,
2013-12-24 09:33:00,40.3,17.9,30.36,ESE,112,0.0,0.0,40,0.00,,SKC,0.00,VWS V14.00,2013-12-24 17:33:00,
2013-12-24 09:34:00,40.3,17.9,30.36,SE,135,0.0,0.0,40,0.00,,SKC,0.00,VWS V14.00,2013-12-24 17:34:00,
2013-12-24 09:35:00,40.5,18.1,30.36,SE,135,0.0,0.0,40,0.00,,SKC,0.00,VWS V14.00,2013-12-24 17:35:00,
2013-12-24 09:38:00,41.0,18.0,30.36,SE,135,0.0,0.0,39,0.00,,SKC,0.00,VWS V14.00,2013-12-24 17:38:00,
2013-12-24 09:39:00,40.9,18.4,30.36,SE,135,1.6,1.6,40,0.00,,SKC,0.00,VWS V14.00,2013-12-24 17:39:00,
2013-12-24 09:40:00,40.9,18.4,30.36,SE,135,1.1,1.1,40,0.00,,SKC,0.00,VWS V14.00,2013-12-24 17:40:00,
2013-12-24 09:43:00,40.9,17.8,30.36,ESE,112,0.0,0.0,39,0.00,,SKC,0.00,VWS V14.00,2013-12-24 17:43:00,
2013-12-24 09:44:00,41.2,18.7,30.36,SE,135,0.0,0.0,40,0.00,,SKC,0.00,VWS V14.00,2013-12-24 17:44:00,
2013-12-24 09:45:00,41.2,18.1,30.36,SE,135,0.0,0.0,39,0.00,,SKC,0.00,VWS V14.00,2013-12-24 17:45:00,
2013-12-24 09:48:00,41.2,18.1,30.36,SE,135,1.6,1.6,39,0.00,,SKC,0.00,VWS V14.00,2013-12-24 17:48:00,
2013-12-24 09:49:00,41.2,18.1,30.36,SE,135,0.0,0.0,39,0.00,,SKC,0.00,VWS V14.00,2013-12-24 17:49:00,
2013-12-24 09:50:00,41.2,18.1,30.36,SE,135,0.0,0.0,39,0.00,,SKC,0.00,VWS V14.00,2013-12-24 17:50:00,
2013-12-24 09:53:00,41.8,18.6,30.36,SE,135,0.0,0.0,39,0.00,,SKC,0.00,VWS V14.00,2013-12-24 17:53:00,
2013-12-24 09:54:00,41.8,18.0,30.36,South,180,0.0,0.0,38,0.00,,SKC,0.00,VWS V14.00,2013-12-24 17:54:00,
2013-12-24 09:55:00,41.8,18.0,30.36,South,180,0.0,0.0,38,0.00,,SKC,0.00,VWS V14.00,2013-12-24 17:55:00,
2013-12-24 09:56:00,41.8,18.0,30.36,South,180,0.0,0.0,38,0.00,,SKC,0.00,VWS V14.00,2013-12-24 17:56:00,
2013-12-24 09:58:00,42.3,18.5,30.36,SSW,202,0.0,0.0,38,0.00,,SKC,0.00,VWS V14.00,2013-12-24 17:58:00,
2013-12-24 09:59:00,42.3,18.5,30.36,South,180,0.0,0.0,38,0.00,,SKC,0.00,VWS V14.00,2013-12-24 17:59:00,
2013-12-24 10:00:00,42.3,17.9,30.36,SSW,202,2.9,2.9,37,0.00,,SKC,0.00,VWS V14.00,2013-12-24 18:00:00,
2013-12-24 10:01:00,42.1,17.7,30.36,SSW,202,0.0,0.0,37,0.00,,SKC,0.00,VWS V14.00,2013-12-24 18:01:00,
2013-12-24 10:03:00,42.3,17.9,30.36,South,180,0.0,0.0,37,0.00,,SKC,0.00,VWS V14.00,2013-12-24 18:03:00,
2013-12-24 10:04:00,42.1,17.7,30.36,South,180,0.0,0.0,37,0.00,,SKC,0.00,VWS V14.00,2013-12-24 18:04:00,
2013-12-24 10:05:00,41.9,17.6,30.36,South,180,0.0,0.0,37,0.00,,SKC,0.00,VWS V14.00,2013-12-24 18:05:00,
2013-12-24 10:06:00,41.9,17.6,30.36,SSW,202,0.0,0.0,37,0.00,,SKC,0.00,VWS V14.00,2013-12-24 18:06:00,
2013-12-24 10:07:00,41.8,17.4,30.36,South,180,0.0,0.0,37,0.00,,SKC,0.00,VWS V14.00,2013-12-24 18:07:00,
2013-12-24 10:08:00,41.9,17.6,30.36,SW,225,0.0,0.0,37,0.00,,SKC,0.00,VWS V14.00,2013-12-24 18:08:00,
2013-12-24 10:09:00,41.8,17.4,30.36,SW,225,0.9,0.9,37,0.00,,SKC,0.00,VWS V14.00,2013-12-24 18:09:00,
2013-12-24 10:11:00,42.3,17.9,30.36,South,180,2.0,2.0,37,0.00,,SKC,0.00,VWS V14.00,2013-12-24 18:11:00,
2013-12-24 10:12:00,42.1,17.7,30.36,SSW,202,0.0,0.0,37,0.00,,SKC,0.00,VWS V14.00,2013-12-24 18:12:00,
2013-12-24 10:13:00,42.3,17.9,30.36,South,180,0.0,0.0,37,0.00,,SKC,0.00,VWS V14.00,2013-12-24 18:13:00,
2013-12-24 10:14:00,42.3,17.9,30.36,SW,225,0.0,0.0,37,0.00,,SKC,0.00,VWS V14.00,2013-12-24 18:14:00,
2013-12-24 10:16:00,42.7,18.2,30.36,SSW,202,2.2,2.2,37,0.00,,SKC,0.00,VWS V14.00,2013-12-24 18:16:00,
2013-12-24 10:17:00,42.7,18.2,30.36,SSW,202,0.0,0.0,37,0.00,,SKC,0.00,VWS V14.00,2013-12-24 18:17:00,
2013-12-24 10:18:00,42.5,18.1,30.36,SSW,202,1.6,1.6,37,0.00,,SKC,0.00,VWS V14.00,2013-12-24 18:18:00,
2013-12-24 10:19:00,42.7,18.2,30.36,SSW,202,0.0,0.0,37,0.00,,SKC,0.00,VWS V14.00,2013-12-24 18:19:00,
2013-12-24 10:21:00,42.8,18.4,30.36,SSW,202,0.0,0.0,37,0.00,,SKC,0.00,VWS V14.00,2013-12-24 18:21:00,
2013-12-24 10:22:00,43.0,18.5,30.36,SSW,202,0.0,0.0,37,0.00,,SKC,0.00,VWS V14.00,2013-12-24 18:22:00,
2013-12-24 10:24:00,43.6,19.0,30.36,SW,225,0.0,0.0,37,0.00,,SKC,0.00,VWS V14.00,2013-12-24 18:24:00,
2013-12-24 10:25:00,43.6,19.0,30.36,SW,225,0.0,0.0,37,0.00,,SKC,0.00,VWS V14.00,2013-12-24 18:25:00,
2013-12-24 10:26:00,43.7,19.2,30.36,SW,225,0.0,0.0,37,0.00,,SKC,0.00,VWS V14.00,2013-12-24 18:26:00,
2013-12-24 10:27:00,43.7,19.2,30.36,SW,225,0.9,0.9,37,0.00,,SKC,0.00,VWS V14.00,2013-12-24 18:27:00,
2013-12-24 10:29:00,44.5,19.8,30.33,SW,225,0.0,0.0,37,0.00,,SKC,0.00,VWS V14.00,2013-12-24 18:29:00,
2013-12-24 10:30:00,44.5,19.8,30.33,SW,225,0.0,0.0,37,0.00,,SKC,0.00,VWS V14.00,2013-12-24 18:30:00,
2013-12-24 10:31:00,44.5,19.8,30.33,SSW,202,0.0,0.0,37,0.00,,SKC,0.00,VWS V14.00,2013-12-24 18:31:00,
2013-12-24 10:32:00,44.5,19.8,30.33,SSW,202,0.0,0.0,37,0.00,,SKC,0.00,VWS V14.00,2013-12-24 18:32:00,
2013-12-24 10:34:00,44.8,19.5,30.33,SSW,202,0.0,0.0,36,0.00,,SKC,0.00,VWS V14.00,2013-12-24 18:34:00,
2013-12-24 10:35:00,45.0,19.0,30.33,SSW,202,0.0,0.0,35,0.00,,SKC,0.00,VWS V14.00,2013-12-24 18:35:00,
2013-12-24 10:36:00,45.0,19.0,30.33,SSW,202,0.0,0.0,35,0.00,,SKC,0.00,VWS V14.00,2013-12-24 18:36:00,
2013-12-24 10:37:00,45.2,19.2,30.33,SSW,202,0.0,0.0,35,0.00,,SKC,0.00,VWS V14.00,2013-12-24 18:37:00,
2013-12-24 10:38:00,45.4,19.3,30.33,SSW,202,0.0,0.0,35,0.00,,SKC,0.00,VWS V14.00,2013-12-24 18:38:00,
2013-12-24 10:40:00,45.9,18.4,30.33,SSW,202,0.0,0.0,33,0.00,,SKC,0.00,VWS V14.00,2013-12-24 18:40:00,
2013-12-24 10:41:00,46.3,19.5,30.33,SSW,202,0.0,0.0,34,0.00,,SKC,0.00,VWS V14.00,2013-12-24 18:41:00,
2013-12-24 10:43:00,46.6,19.8,30.33,SSW,202,0.0,0.0,34,0.00,,SKC,0.00,VWS V14.00,2013-12-24 18:43:00,
2013-12-24 10:45:00,46.6,18.4,30.33,South,180,0.0,0.0,32,0.00,,SKC,0.00,VWS V14.00,2013-12-24 18:45:00,
2013-12-24 10:46:00,47.3,18.2,30.33,South,180,0.0,0.0,31,0.00,,SKC,0.00,VWS V14.00,2013-12-24 18:46:00,
2013-12-24 10:48:00,47.9,19.5,30.33,South,180,0.0,0.0,32,0.00,,SKC,0.00,VWS V14.00,2013-12-24 18:48:00,
2013-12-24 10:50:00,48.4,19.9,30.33,South,180,0.0,0.0,32,0.00,,SKC,0.00,VWS V14.00,2013-12-24 18:50:00,
2013-12-24 10:51:00,48.8,20.2,30.33,South,180,0.0,0.0,32,0.00,,SKC,0.00,VWS V14.00,2013-12-24 18:51:00,
2013-12-24 10:53:00,48.4,20.7,30.33,South,180,0.0,0.0,33,0.00,,SKC,0.00,VWS V14.00,2013-12-24 18:53:00,
2013-12-24 10:55:00,48.6,20.1,30.33,South,180,0.0,0.0,32,0.00,,SKC,0.00,VWS V14.00,2013-12-24 18:55:00,
2013-12-24 10:56:00,48.6,20.1,30.33,South,180,0.0,0.0,32,0.00,,SKC,0.00,VWS V14.00,2013-12-24 18:56:00,
2013-12-24 10:57:00,48.6,20.1,30.33,South,180,0.0,0.0,32,0.00,,SKC,0.00,VWS V14.00,2013-12-24 18:57:00,
2013-12-24 10:58:00,48.2,18.3,30.33,South,180,0.0,0.0,30,0.00,,SKC,0.00,VWS V14.00,2013-12-24 18:58:00,
2013-12-24 11:00:00,49.0,18.9,30.33,South,180,0.0,0.0,30,0.00,,SKC,0.00,VWS V14.00,2013-12-24 19:00:00,
2013-12-24 11:01:00,49.0,18.9,30.33,South,180,0.0,0.0,30,0.00,,SKC,0.00,VWS V14.00,2013-12-24 19:01:00,
2013-12-24 11:02:00,49.3,20.0,30.33,South,180,0.0,0.0,31,0.00,,SKC,0.00,VWS V14.00,2013-12-24 19:02:00,
2013-12-24 11:03:00,49.1,19.8,30.33,South,180,0.0,0.0,31,0.00,,SKC,0.00,VWS V14.00,2013-12-24 19:03:00,
2013-12-24 11:04:00,48.8,19.5,30.33,South,180,0.0,0.0,31,0.00,,SKC,0.00,VWS V14.00,2013-12-24 19:04:00,
2013-12-24 11:05:00,48.8,18.7,30.33,South,180,0.0,0.0,30,0.00,,SKC,0.00,VWS V14.00,2013-12-24 19:05:00,
2013-12-24 11:06:00,49.1,19.1,30.33,South,180,0.0,0.0,30,0.00,,SKC,0.00,VWS V14.00,2013-12-24 19:06:00,
2013-12-24 11:08:00,49.3,19.2,30.33,South,180,0.0,0.0,30,0.00,,SKC,0.00,VWS V14.00,2013-12-24 19:08:00,
2013-12-24 11:09:00,49.3,19.2,30.33,South,180,0.0,0.0,30,0.00,,SKC,0.00,VWS V14.00,2013-12-24 19:09:00,
2013-12-24 11:10:00,49.5,18.6,30.33,South,180,0.0,0.0,29,0.00,,SKC,0.00,VWS V14.00,2013-12-24 19:10:00,
2013-12-24 11:11:00,49.5,18.6,30.33,South,180,0.0,0.0,29,0.00,,SKC,0.00,VWS V14.00,2013-12-24 19:11:00,
2013-12-24 11:12:00,49.1,17.5,30.33,South,180,0.0,0.0,28,0.00,,SKC,0.00,VWS V14.00,2013-12-24 19:12:00,
2013-12-24 11:13:00,49.1,18.3,30.33,South,180,0.0,0.0,29,0.00,,SKC,0.00,VWS V14.00,2013-12-24 19:13:00,
2013-12-24 11:14:00,49.1,18.3,30.33,South,180,0.0,0.0,29,0.00,,SKC,0.00,VWS V14.00,2013-12-24 19:14:00,
2013-12-24 11:15:00,48.8,17.1,30.33,South,180,0.0,0.0,28,0.00,,SKC,0.00,VWS V14.00,2013-12-24 19:15:00,
2013-12-24 11:16:00,48.8,17.1,30.33,South,180,0.0,0.0,28,0.00,,SKC,0.00,VWS V14.00,2013-12-24 19:16:00,
2013-12-24 11:17:00,48.8,17.1,30.33,South,180,0.0,0.0,28,0.00,,SKC,0.00,VWS V14.00,2013-12-24 19:17:00,
2013-12-24 11:19:00,49.3,16.8,30.33,SE,135,0.0,0.0,27,0.00,,SKC,0.00,VWS V14.00,2013-12-24 19:19:00,
2013-12-24 11:20:00,50.2,17.5,30.33,SE,135,0.0,0.0,27,0.00,,SKC,0.00,VWS V14.00,2013-12-24 19:20:00,
2013-12-24 11:21:00,50.2,17.5,30.33,SE,135,0.0,0.0,27,0.00,,SKC,0.00,VWS V14.00,2013-12-24 19:21:00,
2013-12-24 11:22:00,50.2,18.4,30.33,SE,135,0.0,0.0,28,0.00,,SKC,0.00,VWS V14.00,2013-12-24 19:22:00,
2013-12-24 11:24:00,50.6,17.9,30.33,SE,135,0.0,0.0,27,0.00,,SKC,0.00,VWS V14.00,2013-12-24 19:24:00,
2013-12-24 11:25:00,50.9,18.2,30.33,SE,135,0.0,0.0,27,0.00,,SKC,0.00,VWS V14.00,2013-12-24 19:25:00,
2013-12-24 11:26:00,50.9,18.2,30.33,SE,135,0.0,0.0,27,0.00,,SKC,0.00,VWS V14.00,2013-12-24 19:26:00,
2013-12-24 11:27:00,50.9,17.3,30.33,SE,135,0.0,0.0,26,0.00,,SKC,0.00,VWS V14.00,2013-12-24 19:27:00,
2013-12-24 11:29:00,51.1,18.3,30.30,SE,135,0.0,0.0,27,0.00,,SKC,0.00,VWS V14.00,2013-12-24 19:29:00,
2013-12-24 11:30:00,51.3,18.5,30.30,SE,135,0.0,0.0,27,0.00,,SKC,0.00,VWS V14.00,2013-12-24 19:30:00,
2013-12-24 11:31:00,51.7,18.8,30.30,SE,135,0.0,0.0,27,0.00,,SKC,0.00,VWS V14.00,2013-12-24 19:31:00,
2013-12-24 11:32:00,51.8,18.9,30.30,East,90,0.0,0.0,27,0.00,,SKC,0.00,VWS V14.00,2013-12-24 19:32:00,
2013-12-24 11:34:00,51.7,17.9,30.30,East,90,0.0,0.0,26,0.00,,SKC,0.00,VWS V14.00,2013-12-24 19:34:00,
2013-12-24 11:35:00,51.7,17.9,30.30,East,90,0.0,0.0,26,0.00,,SKC,0.00,VWS V14.00,2013-12-24 19:35:00,
2013-12-24 11:36:00,51.7,17.9,30.30,East,90,0.0,0.0,26,0.00,,SKC,0.00,VWS V14.00,2013-12-24 19:36:00,
2013-12-24 11:37:00,51.8,18.1,30.30,East,90,0.0,0.0,26,0.00,,SKC,0.00,VWS V14.00,2013-12-24 19:37:00,
2013-12-24 11:38:00,52.2,18.4,30.30,East,90,0.0,0.0,26,0.00,,SKC,0.00,VWS V14.00,2013-12-24 19:38:00,
2013-12-24 11:40:00,52.4,18.5,30.30,East,90,0.0,0.0,26,0.00,,SKC,0.00,VWS V14.00,2013-12-24 19:40:00,
2013-12-24 11:41:00,52.2,18.4,30.30,East,90,0.0,0.0,26,0.00,,SKC,0.00,VWS V14.00,2013-12-24 19:41:00,
2013-12-24 11:42:00,52.0,18.2,30.30,East,90,0.0,0.0,26,0.00,,SKC,0.00,VWS V14.00,2013-12-24 19:42:00,
2013-12-24 11:43:00,52.0,18.2,30.30,East,90,0.0,0.0,26,0.00,,SKC,0.00,VWS V14.00,2013-12-24 19:43:00,
2013-12-24 11:45:00,52.0,18.2,30.30,East,90,0.0,0.0,26,0.00,,SKC,0.00,VWS V14.00,2013-12-24 19:45:00,
2013-12-24 11:46:00,52.2,18.4,30.30,SE,135,0.0,0.0,26,0.00,,SKC,0.00,VWS V14.00,2013-12-24 19:46:00,
2013-12-24 11:47:00,52.6,18.7,30.30,SE,135,0.0,0.0,26,0.00,,SKC,0.00,VWS V14.00,2013-12-24 19:47:00,
2013-12-24 11:48:00,52.6,18.7,30.30,South,180,0.0,0.0,26,0.00,,SKC,0.00,VWS V14.00,2013-12-24 19:48:00,
2013-12-24 11:50:00,52.7,18.8,30.30,South,180,0.0,0.0,26,0.00,,SKC,0.00,VWS V14.00,2013-12-24 19:50:00,
2013-12-24 11:51:00,52.7,18.8,30.30,SW,225,0.0,0.0,26,0.00,,SKC,0.00,VWS V14.00,2013-12-24 19:51:00,
2013-12-24 11:52:00,52.9,19.0,30.30,SW,225,0.0,0.0,26,0.00,,SKC,0.00,VWS V14.00,2013-12-24 19:52:00,
2013-12-24 11:53:00,53.1,19.1,30.30,SW,225,0.0,0.0,26,0.00,,SKC,0.00,VWS V14.00,2013-12-24 19:53:00,
2013-12-24 11:54:00,53.1,19.1,30.30,SW,225,0.0,0.0,26,0.00,,SKC,0.00,VWS V14.00,2013-12-24 19:54:00,
2013-12-24 11:55:00,53.1,18.2,30.30,SW,225,0.0,0.0,25,0.00,,SKC,0.00,VWS V14.00,2013-12-24 19:55:00,
2013-12-24 11:56:00,53.1,18.2,30.30,SW,225,0.0,0.0,25,0.00,,SKC,0.00,VWS V14.00,2013-12-24 19:56:00,
2013-12-24 11:58:00,53.3,18.4,30.30,SW,225,0.0,0.0,25,0.00,,SKC,0.00,VWS V14.00,2013-12-24 19:58:00,
2013-12-24 11:59:00,53.3,18.4,30.30,SW,225,0.0,0.0,25,0.00,,SKC,0.00,VWS V14.00,2013-12-24 19:59:00,
2013-12-24 12:00:00,53.3,18.4,30.30,East,90,0.0,0.0,25,0.00,,SKC,0.00,VWS V14.00,2013-12-24 20:00:00,
2013-12-24 12:01:00,53.1,18.2,30.30,East,90,0.0,0.0,25,0.00,,SKC,0.00,VWS V14.00,2013-12-24 20:01:00,
2013-12-24 12:03:00,52.9,18.1,30.30,NE,45,2.0,2.0,25,0.00,,SKC,0.00,VWS V14.00,2013-12-24 20:03:00,
2013-12-24 12:04:00,53.1,18.2,30.30,NE,45,0.0,0.0,25,0.00,,SKC,0.00,VWS V14.00,2013-12-24 20:04:00,
2013-12-24 12:05:00,53.5,18.5,30.30,ENE,68,0.0,0.0,25,0.00,,SKC,0.00,VWS V14.00,2013-12-24 20:05:00,
2013-12-24 12:06:00,53.8,18.8,30.30,ENE,68,0.0,0.0,25,0.00,,SKC,0.00,VWS V14.00,2013-12-24 20:06:00,
2013-12-24 12:08:00,53.5,17.6,30.30,East,90,2.0,2.0,24,0.00,,SKC,0.00,VWS V14.00,2013-12-24 20:08:00,
2013-12-24 12:09:00,53.5,17.6,30.30,East,90,0.0,0.0,24,0.00,,SKC,0.00,VWS V14.00,2013-12-24 20:09:00,
2013-12-24 12:10:00,52.6,16.8,30.30,East,90,0.0,0.0,24,0.00,,SKC,0.00,VWS V14.00,2013-12-24 20:10:00,
2013-12-24 12:11:00,52.6,16.8,30.30,East,90,0.0,0.0,24,0.00,,SKC,0.00,VWS V14.00,2013-12-24 20:11:00,
2013-12-24 12:13:00,51.8,17.1,30.30,East,90,0.0,0.0,25,0.00,,SKC,0.00,VWS V14.00,2013-12-24 20:13:00,
2013-12-24 12:14:00,52.2,16.5,30.30,ESE,112,0.0,0.0,24,0.00,,SKC,0.00,VWS V14.00,2013-12-24 20:14:00,
2013-12-24 12:15:00,52.6,16.8,30.30,ENE,68,0.0,0.0,24,0.00,,SKC,0.00,VWS V14.00,2013-12-24 20:15:00,
2013-12-24 12:16:00,52.6,16.8,30.30,ENE,68,0.0,0.0,24,0.00,,SKC,0.00,VWS V14.00,2013-12-24 20:16:00,
2013-12-24 12:18:00,52.4,16.7,30.30,ESE,112,3.1,3.1,24,0.00,,SKC,0.00,VWS V14.00,2013-12-24 20:18:00,
2013-12-24 12:19:00,52.0,17.3,30.30,East,90,0.0,0.0,25,0.00,,SKC,0.00,VWS V14.00,2013-12-24 20:19:00,
2013-12-24 12:21:00,52.2,16.5,30.30,ESE,112,3.4,3.4,24,0.00,,SKC,0.00,VWS V14.00,2013-12-24 20:21:00,
2013-12-24 12:23:00,52.0,17.3,30.30,East,90,0.0,0.0,25,0.00,,SKC,0.00,VWS V14.00,2013-12-24 20:23:00,
2013-12-24 12:24:00,51.8,17.1,30.30,East,90,2.9,2.9,25,0.00,,SKC,0.00,VWS V14.00,2013-12-24 20:24:00,
2013-12-24 12:26:00,51.8,17.1,30.30,East,90,0.0,0.0,25,0.00,,SKC,0.00,VWS V14.00,2013-12-24 20:26:00,
2013-12-24 12:28:00,51.8,17.1,30.27,ENE,68,0.0,0.0,25,0.00,,SKC,0.00,VWS V14.00,2013-12-24 20:28:00,
2013-12-24 12:29:00,52.2,16.5,30.27,East,90,0.0,0.0,24,0.00,,SKC,0.00,VWS V14.00,2013-12-24 20:29:00,
2013-12-24 12:30:00,52.6,16.8,30.27,East,90,2.5,2.5,24,0.00,,SKC,0.00,VWS V14.00,2013-12-24 20:30:00,
2013-12-24 12:31:00,52.6,16.8,30.27,SE,135,2.7,2.7,24,0.00,,SKC,0.00,VWS V14.00,2013-12-24 20:31:00,
2013-12-24 12:34:00,51.8,17.1,30.27,East,90,3.4,3.4,25,0.00,,SKC,0.00,VWS V14.00,2013-12-24 20:34:00,
2013-12-24 12:36:00,51.8,17.1,30.27,East,90,3.1,3.1,25,0.00,,SKC,0.00,VWS V14.00,2013-12-24 20:36:00,
2013-12-24 12:39:00,51.8,17.1,30.27,ESE,112,0.0,0.0,25,0.00,,SKC,0.00,VWS V14.00,2013-12-24 20:39:00,
2013-12-24 12:41:00,51.7,17.0,30.27,East,90,2.7,2.7,25,0.00,,SKC,0.00,VWS V14.00,2013-12-24 20:41:00,
2013-12-24 12:42:00,51.7,17.0,30.27,ESE,112,2.9,2.9,25,0.00,,SKC,0.00,VWS V14.00,2013-12-24 20:42:00,
2013-12-24 12:44:00,51.3,16.7,30.30,East,90,6.3,6.3,25,0.00,,SKC,0.00,VWS V14.00,2013-12-24 20:44:00,
2013-12-24 12:46:00,51.3,16.7,30.30,East,90,5.6,5.6,25,0.00,,SKC,0.00,VWS V14.00,2013-12-24 20:46:00,
2013-12-24 12:47:00,51.3,16.7,30.30,ESE,112,3.4,3.4,25,0.00,,SKC,0.00,VWS V14.00,2013-12-24 20:47:00,
2013-12-24 12:49:00,51.1,16.5,30.30,East,90,5.6,5.6,25,0.00,,SKC,0.00,VWS V14.00,2013-12-24 20:49:00,
2013-12-24 12:51:00,51.7,17.0,30.30,East,90,4.9,4.9,25,0.00,,SKC,0.00,VWS V14.00,2013-12-24 20:51:00,
2013-12-24 12:52:00,51.5,16.8,30.30,ENE,68,3.6,3.6,25,0.00,,SKC,0.00,VWS V14.00,2013-12-24 20:52:00,
2013-12-24 12:53:00,51.5,16.8,30.30,East,90,4.0,4.0,25,0.00,,SKC,0.00,VWS V14.00,2013-12-24 20:53:00,
2013-12-24 12:54:00,51.7,17.0,30.30,East,90,1.3,1.3,25,0.00,,SKC,0.00,VWS V14.00,2013-12-24 20:54:00,
2013-12-24 12:56:00,51.8,17.1,30.30,ENE,68,4.9,4.9,25,0.00,,SKC,0.00,VWS V14.00,2013-12-24 20:56:00,
2013-12-24 12:57:00,51.8,17.1,30.30,ENE,68,5.4,5.4,25,0.00,,SKC,0.00,VWS V14.00,2013-12-24 20:57:00,
2013-12-24 12:58:00,51.7,17.0,30.30,East,90,4.3,4.3,25,0.00,,SKC,0.00,VWS V14.00,2013-12-24 20:58:00,
2013-12-24 12:59:00,51.8,17.1,30.30,ENE,68,4.0,4.0,25,0.00,,SKC,0.00,VWS V14.00,2013-12-24 20:59:00,
2013-12-24 13:02:00,51.8,17.1,30.30,East,90,0.0,0.0,25,0.00,,SKC,0.00,VWS V14.00,2013-12-24 21:02:00,
2013-12-24 13:03:00,51.7,17.9,30.30,East,90,3.6,3.6,26,0.00,,SKC,0.00,VWS V14.00,2013-12-24 21:03:00,
2013-12-24 13:04:00,51.7,17.9,30.30,ENE,68,4.3,4.3,26,0.00,,SKC,0.00,VWS V14.00,2013-12-24 21:04:00,
2013-12-24 13:07:00,51.8,18.1,30.30,East,90,4.5,4.5,26,0.00,,SKC,0.00,VWS V14.00,2013-12-24 21:07:00,
2013-12-24 13:08:00,51.8,18.1,30.30,ESE,112,3.6,3.6,26,0.00,,SKC,0.00,VWS V14.00,2013-12-24 21:08:00,
2013-12-24 13:09:00,51.7,17.9,30.30,NE,45,4.3,4.3,26,0.00,,SKC,0.00,VWS V14.00,2013-12-24 21:09:00,
2013-12-24 13:12:00,51.8,18.1,30.30,East,90,4.0,4.0,26,0.00,,SKC,0.00,VWS V14.00,2013-12-24 21:12:00,
2013-12-24 13:13:00,51.3,17.6,30.30,East,90,6.0,6.0,26,0.00,,SKC,0.00,VWS V14.00,2013-12-24 21:13:00,
2013-12-24 13:14:00,51.1,17.4,30.30,ENE,68,4.9,4.9,26,0.00,,SKC,0.00,VWS V14.00,2013-12-24 21:14:00,
2013-12-24 13:15:00,51.3,17.6,30.30,ENE,68,5.8,5.8,26,0.00,,SKC,0.00,VWS V14.00,2013-12-24 21:15:00,
2013-12-24 13:17:00,51.5,17.8,30.30,ENE,68,3.4,3.4,26,0.00,,SKC,0.00,VWS V14.00,2013-12-24 21:17:00,
2013-12-24 13:18:00,51.5,17.8,30.30,NNE,22,4.3,4.3,26,0.00,,SKC,0.00,VWS V14.00,2013-12-24 21:18:00,
2013-12-24 13:19:00,51.5,17.8,30.30,East,90,5.6,5.6,26,0.00,,SKC,0.00,VWS V14.00,2013-12-24 21:19:00,
2013-12-24 13:20:00,51.3,17.6,30.30,NE,45,3.6,3.6,26,0.00,,SKC,0.00,VWS V14.00,2013-12-24 21:20:00,
2013-12-24 13:22:00,51.3,17.6,30.30,NE,45,4.3,4.3,26,0.00,,SKC,0.00,VWS V14.00,2013-12-24 21:22:00,
2013-12-24 13:23:00,51.1,17.4,30.30,NE,45,6.0,6.0,26,0.00,,SKC,0.00,VWS V14.00,2013-12-24 21:23:00,
2013-12-24 13:24:00,51.1,17.4,30.30,NE,45,2.9,2.9,26,0.00,,SKC,0.00,VWS V14.00,2013-12-24 21:24:00,
2013-12-24 13:25:00,51.1,17.4,30.30,NE,45,6.5,6.5,26,0.00,,SKC,0.00,VWS V14.00,2013-12-24 21:25:00,
2013-12-24 13:27:00,50.9,17.3,30.30,NE,45,5.4,5.4,26,0.00,,SKC,0.00,VWS V14.00,2013-12-24 21:27:00,
2013-12-24 13:28:00,50.9,17.3,30.30,ENE,68,6.0,6.0,26,0.00,,SKC,0.00,VWS V14.00,2013-12-24 21:28:00,
2013-12-24 13:29:00,50.8,17.1,30.30,NE,45,4.0,4.0,26,0.00,,SKC,0.00,VWS V14.00,2013-12-24 21:29:00,
2013-12-24 13:31:00,50.9,17.3,30.30,East,90,4.3,4.3,26,0.00,,SKC,0.00,VWS V14.00,2013-12-24 21:31:00,
2013-12-24 13:32:00,50.6,17.0,30.30,NE,45,3.6,3.6,26,0.00,,SKC,0.00,VWS V14.00,2013-12-24 21:32:00,
2013-12-24 13:33:00,50.6,17.0,30.30,NE,45,4.9,4.9,26,0.00,,SKC,0.00,VWS V14.00,2013-12-24 21:33:00,
2013-12-24 13:34:00,50.6,17.0,30.30,NE,45,5.6,5.6,26,0.00,,SKC,0.00,VWS V14.00,2013-12-24 21:34:00,
2013-12-24 13:35:00,50.8,17.1,30.30,NE,45,6.3,6.3,26,0.00,,SKC,0.00,VWS V14.00,2013-12-24 21:35:00,
2013-12-24 13:36:00,50.8,18.0,30.30,ENE,68,4.5,4.5,27,0.00,,SKC,0.00,VWS V14.00,2013-12-24 21:36:00,
2013-12-24 13:37:00,50.6,17.9,30.30,ENE,68,5.4,5.4,27,0.00,,SKC,0.00,VWS V14.00,2013-12-24 21:37:00,
2013-12-24 13:38:00,50.6,17.9,30.30,NNE,22,4.9,4.9,27,0.00,,SKC,0.00,VWS V14.00,2013-12-24 21:38:00,
2013-12-24 13:39:00,50.6,17.9,30.30,East,90,4.0,4.0,27,0.00,,SKC,0.00,VWS V14.00,2013-12-24 21:39:00,
2013-12-24 13:40:00,50.6,17.9,30.30,ENE,68,3.8,3.8,27,0.00,,SKC,0.00,VWS V14.00,2013-12-24 21:40:00,
2013-12-24 13:41:00,50.6,17.9,30.30,East,90,3.8,3.8,27,0.00,,SKC,0.00,VWS V14.00,2013-12-24 21:41:00,
2013-12-24 13:42:00,50.9,18.2,30.30,North,0,5.4,5.4,27,0.00,,SKC,0.00,VWS V14.00,2013-12-24 21:42:00,
2013-12-24 13:43:00,51.1,18.3,30.30,NE,45,6.3,6.3,27,0.00,,SKC,0.00,VWS V14.00,2013-12-24 21:43:00,
2013-12-24 13:44:00,51.1,18.3,30.30,East,90,5.6,5.6,27,0.00,,SKC,0.00,VWS V14.00,2013-12-24 21:44:00,
2013-12-24 13:46:00,50.8,18.0,30.30,ENE,68,5.8,5.8,27,0.00,,SKC,0.00,VWS V14.00,2013-12-24 21:46:00,
2013-12-24 13:47:00,50.8,18.0,30.30,NNE,22,4.3,4.3,27,0.00,,SKC,0.00,VWS V14.00,2013-12-24 21:47:00,
2013-12-24 13:48:00,50.8,18.0,30.30,NE,45,6.5,6.5,27,0.00,,SKC,0.00,VWS V14.00,2013-12-24 21:48:00,
2013-12-24 13:49:00,50.6,17.9,30.30,NE,45,4.9,4.9,27,0.00,,SKC,0.00,VWS V14.00,2013-12-24 21:49:00,
2013-12-24 13:51:00,50.2,17.5,30.30,NE,45,6.3,6.3,27,0.00,,SKC,0.00,VWS V14.00,2013-12-24 21:51:00,
2013-12-24 13:52:00,50.0,17.4,30.30,ENE,68,5.4,5.4,27,0.00,,SKC,0.00,VWS V14.00,2013-12-24 21:52:00,
2013-12-24 13:53:00,50.0,17.4,30.30,NNE,22,3.4,3.4,27,0.00,,SKC,0.00,VWS V14.00,2013-12-24 21:53:00,
2013-12-24 13:54:00,50.0,18.2,30.30,NE,45,3.8,3.8,28,0.00,,SKC,0.00,VWS V14.00,2013-12-24 21:54:00,
2013-12-24 13:56:00,50.0,18.2,30.30,NE,45,4.9,4.9,28,0.00,,SKC,0.00,VWS V14.00,2013-12-24 21:56:00,
2013-12-24 13:57:00,50.0,18.2,30.30,NE,45,4.9,4.9,28,0.00,,SKC,0.00,VWS V14.00,2013-12-24 21:57:00,
2013-12-24 13:58:00,50.2,18.4,30.30,NE,45,3.1,3.1,28,0.00,,SKC,0.00,VWS V14.00,2013-12-24 21:58:00,
2013-12-24 13:59:00,50.2,18.4,30.30,NE,45,3.4,3.4,28,0.00,,SKC,0.00,VWS V14.00,2013-12-24 21:59:00,
2013-12-24 14:00:00,50.4,17.7,30.30,ENE,68,2.9,2.9,27,0.00,,SKC,0.00,VWS V14.00,2013-12-24 22:00:00,
2013-12-24 14:01:00,50.2,18.4,30.30,East,90,4.3,4.3,28,0.00,,SKC,0.00,VWS V14.00,2013-12-24 22:01:00,
2013-12-24 14:02:00,50.2,18.4,30.30,NE,45,1.1,1.1,28,0.00,,SKC,0.00,VWS V14.00,2013-12-24 22:02:00,
2013-12-24 14:04:00,50.2,18.4,30.30,NE,45,5.6,5.6,28,0.00,,SKC,0.00,VWS V14.00,2013-12-24 22:04:00,
2013-12-24 14:05:00,50.2,18.4,30.30,NE,45,5.6,5.6,28,0.00,,SKC,0.00,VWS V14.00,2013-12-24 22:05:00,
2013-12-24 14:06:00,50.2,18.4,30.30,ENE,68,4.9,4.9,28,0.00,,SKC,0.00,VWS V14.00,2013-12-24 22:06:00,
2013-12-24 14:07:00,50.0,18.2,30.30,NE,45,3.6,3.6,28,0.00,,SKC,0.00,VWS V14.00,2013-12-24 22:07:00,
2013-12-24 14:09:00,50.0,18.2,30.30,NE,45,4.7,4.7,28,0.00,,SKC,0.00,VWS V14.00,2013-12-24 22:09:00,
2013-12-24 14:10:00,50.2,18.4,30.30,ENE,68,3.6,3.6,28,0.00,,SKC,0.00,VWS V14.00,2013-12-24 22:10:00,
2013-12-24 14:11:00,50.4,17.7,30.30,East,90,4.9,4.9,27,0.00,,SKC,0.00,VWS V14.00,2013-12-24 22:11:00,
2013-12-24 14:12:00,50.2,18.4,30.30,ENE,68,4.3,4.3,28,0.00,,SKC,0.00,VWS V14.00,2013-12-24 22:12:00,
2013-12-24 14:13:00,50.2,18.4,30.30,East,90,4.9,4.9,28,0.00,,SKC,0.00,VWS V14.00,2013-12-24 22:13:00,
2013-12-24 14:14:00,49.9,18.1,30.30,ENE,68,4.9,4.9,28,0.00,,SKC,0.00,VWS V14.00,2013-12-24 22:14:00,
2013-12-24 14:15:00,49.7,17.9,30.30,East,90,4.9,4.9,28,0.00,,SKC,0.00,VWS V14.00,2013-12-24 22:15:00,
2013-12-24 14:16:00,49.5,18.6,30.30,East,90,4.0,4.0,29,0.00,,SKC,0.00,VWS V14.00,2013-12-24 22:16:00,
2013-12-24 14:17:00,49.1,18.3,30.30,ENE,68,4.3,4.3,29,0.00,,SKC,0.00,VWS V14.00,2013-12-24 22:17:00,
2013-12-24 14:18:00,49.1,18.3,30.30,East,90,5.8,5.8,29,0.00,,SKC,0.00,VWS V14.00,2013-12-24 22:18:00,
2013-12-24 14:19:00,49.0,17.3,30.30,NNE,22,5.6,5.6,28,0.00,,SKC,0.00,VWS V14.00,2013-12-24 22:19:00,
2013-12-24 14:20:00,49.1,17.5,30.30,ENE,68,3.1,3.1,28,0.00,,SKC,0.00,VWS V14.00,2013-12-24 22:20:00,
2013-12-24 14:21:00,49.3,18.4,30.30,ENE,68,3.1,3.1,29,0.00,,SKC,0.00,VWS V14.00,2013-12-24 22:21:00,
2013-12-24 14:22:00,49.5,17.8,30.30,NNE,22,4.0,4.0,28,0.00,,SKC,0.00,VWS V14.00,2013-12-24 22:22:00,
2013-12-24 14:23:00,49.5,17.8,30.30,NE,45,4.3,4.3,28,0.00,,SKC,0.00,VWS V14.00,2013-12-24 22:23:00,
2013-12-24 14:25:00,49.5,17.8,30.30,East,90,3.6,3.6,28,0.00,,SKC,0.00,VWS V14.00,2013-12-24 22:25:00,
2013-12-24 14:26:00,49.5,17.8,30.30,East,90,4.9,4.9,28,0.00,,SKC,0.00,VWS V14.00,2013-12-24 22:26:00,
2013-12-24 14:28:00,49.5,17.8,30.30,ENE,68,3.8,3.8,28,0.00,,SKC,0.00,VWS V14.00,2013-12-24 22:28:00,
2013-12-24 14:30:00,49.3,17.6,30.30,East,90,3.6,3.6,28,0.00,,SKC,0.00,VWS V14.00,2013-12-24 22:30:00,
2013-12-24 14:31:00,49.1,17.5,30.30,ENE,68,5.8,5.8,28,0.00,,SKC,0.00,VWS V14.00,2013-12-24 22:31:00,
2013-12-24 14:33:00,49.0,17.3,30.30,East,90,3.6,3.6,28,0.00,,SKC,0.00,VWS V14.00,2013-12-24 22:33:00,
2013-12-24 14:35:00,49.1,18.3,30.30,East,90,4.3,4.3,29,0.00,,SKC,0.00,VWS V14.00,2013-12-24 22:35:00,
2013-12-24 14:36:00,49.1,18.3,30.30,East,90,3.8,3.8,29,0.00,,SKC,0.00,VWS V14.00,2013-12-24 22:36:00,
2013-12-24 14:38:00,49.3,18.4,30.30,East,90,2.0,2.0,29,0.00,,SKC,0.00,VWS V14.00,2013-12-24 22:38:00,
2013-12-24 14:39:00,49.3,18.4,30.30,East,90,4.0,4.0,29,0.00,,SKC,0.00,VWS V14.00,2013-12-24 22:39:00,
2013-12-24 14:40:00,49.1,18.3,30.30,East,90,4.7,4.7,29,0.00,,SKC,0.00,VWS V14.00,2013-12-24 22:40:00,
2013-12-24 14:41:00,49.1,18.3,30.30,East,90,4.0,4.0,29,0.00,,SKC,0.00,VWS V14.00,2013-12-24 22:41:00,
2013-12-24 14:43:00,48.8,18.7,30.30,East,90,4.7,4.7,30,0.00,,SKC,0.00,VWS V14.00,2013-12-24 22:43:00,
2013-12-24 14:44:00,48.8,18.7,30.30,East,90,3.1,3.1,30,0.00,,SKC,0.00,VWS V14.00,2013-12-24 22:44:00,
2013-12-24 14:46:00,48.8,18.7,30.30,East,90,5.6,5.6,30,0.00,,SKC,0.00,VWS V14.00,2013-12-24 22:46:00,
2013-12-24 14:48:00,48.8,18.0,30.30,East,90,4.9,4.9,29,0.00,,SKC,0.00,VWS V14.00,2013-12-24 22:48:00,
2013-12-24 14:49:00,48.8,18.0,30.30,East,90,4.9,4.9,29,0.00,,SKC,0.00,VWS V14.00,2013-12-24 22:49:00,
2013-12-24 14:51:00,48.6,17.8,30.30,East,90,3.6,3.6,29,0.00,,SKC,0.00,VWS V14.00,2013-12-24 22:51:00,
2013-12-24 14:52:00,48.8,18.0,30.30,NE,45,3.6,3.6,29,0.00,,SKC,0.00,VWS V14.00,2013-12-24 22:52:00,
2013-12-24 14:53:00,49.0,18.1,30.30,East,90,2.7,2.7,29,0.00,,SKC,0.00,VWS V14.00,2013-12-24 22:53:00,
2013-12-24 14:55:00,48.6,17.8,30.30,East,90,4.3,4.3,29,0.00,,SKC,0.00,VWS V14.00,2013-12-24 22:55:00,
2013-12-24 14:56:00,48.4,18.4,30.30,East,90,5.8,5.8,30,0.00,,SKC,0.00,VWS V14.00,2013-12-24 22:56:00,
2013-12-24 14:57:00,48.4,18.4,30.30,East,90,4.0,4.0,30,0.00,,SKC,0.00,VWS V14.00,2013-12-24 22:57:00,
2013-12-24 14:58:00,48.2,18.3,30.30,East,90,3.4,3.4,30,0.00,,SKC,0.00,VWS V14.00,2013-12-24 22:58:00,
2013-12-24 14:59:00,48.2,18.3,30.30,ENE,68,4.5,4.5,30,0.00,,SKC,0.00,VWS V14.00,2013-12-24 22:59:00,
2013-12-24 15:00:00,48.4,17.6,30.30,ENE,68,2.7,2.7,29,0.00,,SKC,0.00,VWS V14.00,2013-12-24 23:00:00,
2013-12-24 15:01:00,48.6,17.8,30.30,ENE,68,2.7,2.7,29,0.00,,SKC,0.00,VWS V14.00,2013-12-24 23:01:00,
2013-12-24 15:02:00,48.6,17.8,30.30,ENE,68,4.0,4.0,29,0.00,,SKC,0.00,VWS V14.00,2013-12-24 23:02:00,
2013-12-24 15:03:00,48.6,17.8,30.30,East,90,4.5,4.5,29,0.00,,SKC,0.00,VWS V14.00,2013-12-24 23:03:00,
2013-12-24 15:04:00,48.6,17.8,30.30,ENE,68,4.3,4.3,29,0.00,,SKC,0.00,VWS V14.00,2013-12-24 23:04:00,
2013-12-24 15:05:00,48.6,17.8,30.30,ENE,68,3.6,3.6,29,0.00,,SKC,0.00,VWS V14.00,2013-12-24 23:05:00,
2013-12-24 15:06:00,48.6,17.8,30.30,East,90,4.3,4.3,29,0.00,,SKC,0.00,VWS V14.00,2013-12-24 23:06:00,
2013-12-24 15:07:00,48.6,17.8,30.30,East,90,3.4,3.4,29,0.00,,SKC,0.00,VWS V14.00,2013-12-24 23:07:00,
2013-12-24 15:08:00,48.6,17.8,30.30,East,90,4.9,4.9,29,0.00,,SKC,0.00,VWS V14.00,2013-12-24 23:08:00,
2013-12-24 15:09:00,48.6,17.8,30.30,East,90,3.1,3.1,29,0.00,,SKC,0.00,VWS V14.00,2013-12-24 23:09:00,
2013-12-24 15:10:00,48.4,17.6,30.30,East,90,3.1,3.1,29,0.00,,SKC,0.00,VWS V14.00,2013-12-24 23:10:00,
2013-12-24 15:12:00,48.6,17.8,30.30,East,90,3.4,3.4,29,0.00,,SKC,0.00,VWS V14.00,2013-12-24 23:12:00,
2013-12-24 15:13:00,48.8,18.0,30.30,ENE,68,3.1,3.1,29,0.00,,SKC,0.00,VWS V14.00,2013-12-24 23:13:00,
2013-12-24 15:14:00,48.8,18.0,30.30,East,90,2.9,2.9,29,0.00,,SKC,0.00,VWS V14.00,2013-12-24 23:14:00,
2013-12-24 15:16:00,49.1,18.3,30.30,East,90,3.6,3.6,29,0.00,,SKC,0.00,VWS V14.00,2013-12-24 23:16:00,
2013-12-24 15:17:00,49.0,18.1,30.30,ENE,68,3.4,3.4,29,0.00,,SKC,0.00,VWS V14.00,2013-12-24 23:17:00,
2013-12-24 15:18:00,49.0,18.1,30.30,East,90,3.6,3.6,29,0.00,,SKC,0.00,VWS V14.00,2013-12-24 23:18:00,
2013-12-24 15:19:00,48.8,18.0,30.30,East,90,1.3,1.3,29,0.00,,SKC,0.00,VWS V14.00,2013-12-24 23:19:00,
2013-12-24 15:20:00,48.8,18.0,30.30,ENE,68,2.7,2.7,29,0.00,,SKC,0.00,VWS V14.00,2013-12-24 23:20:00,
2013-12-24 15:21:00,48.6,17.8,30.30,East,90,3.6,3.6,29,0.00,,SKC,0.00,VWS V14.00,2013-12-24 23:21:00,
2013-12-24 15:22:00,48.6,17.8,30.30,ENE,68,4.3,4.3,29,0.00,,SKC,0.00,VWS V14.00,2013-12-24 23:22:00,
2013-12-24 15:23:00,48.4,17.6,30.30,ENE,68,2.5,2.5,29,0.00,,SKC,0.00,VWS V14.00,2013-12-24 23:23:00,
2013-12-24 15:24:00,48.4,17.6,30.30,ENE,68,2.9,2.9,29,0.00,,SKC,0.00,VWS V14.00,2013-12-24 23:24:00,
2013-12-24 15:25:00,48.4,17.6,30.30,East,90,4.3,4.3,29,0.00,,SKC,0.00,VWS V14.00,2013-12-24 23:25:00,
2013-12-24 15:26:00,48.1,18.1,30.30,East,90,4.3,4.3,30,0.00,,SKC,0.00,VWS V14.00,2013-12-24 23:26:00,
2013-12-24 15:27:00,47.9,18.0,30.30,East,90,4.3,4.3,30,0.00,,SKC,0.00,VWS V14.00,2013-12-24 23:27:00,
2013-12-24 15:28:00,47.7,17.8,30.30,East,90,3.4,3.4,30,0.00,,SKC,0.00,VWS V14.00,2013-12-24 23:28:00,
2013-12-24 15:29:00,47.7,17.8,30.30,East,90,2.9,2.9,30,0.00,,SKC,0.00,VWS V14.00,2013-12-24 23:29:00,
2013-12-24 15:30:00,47.7,17.8,30.30,East,90,3.4,3.4,30,0.00,,SKC,0.00,VWS V14.00,2013-12-24 23:30:00,
2013-12-24 15:32:00,47.3,17.5,30.30,East,90,4.0,4.0,30,0.00,,SKC,0.00,VWS V14.00,2013-12-24 23:32:00,
2013-12-24 15:33:00,47.3,17.5,30.30,East,90,3.6,3.6,30,0.00,,SKC,0.00,VWS V14.00,2013-12-24 23:33:00,
2013-12-24 15:34:00,47.2,17.3,30.30,ENE,68,4.0,4.0,30,0.00,,SKC,0.00,VWS V14.00,2013-12-24 23:34:00,
2013-12-24 15:35:00,47.2,18.1,30.30,East,90,4.9,4.9,31,0.00,,SKC,0.00,VWS V14.00,2013-12-24 23:35:00,
2013-12-24 15:38:00,46.8,17.8,30.30,ENE,68,3.6,3.6,31,0.00,,SKC,0.00,VWS V14.00,2013-12-24 23:38:00,
2013-12-24 15:39:00,46.8,17.8,30.30,East,90,3.8,3.8,31,0.00,,SKC,0.00,VWS V14.00,2013-12-24 23:39:00,
2013-12-24 15:40:00,46.8,17.8,30.30,ENE,68,3.6,3.6,31,0.00,,SKC,0.00,VWS V14.00,2013-12-24 23:40:00,
2013-12-24 15:43:00,46.6,18.4,30.30,ENE,68,2.7,2.7,32,0.00,,SKC,0.00,VWS V14.00,2013-12-24 23:43:00,
2013-12-24 15:44:00,46.6,18.4,30.30,ENE,68,2.5,2.5,32,0.00,,SKC,0.00,VWS V14.00,2013-12-24 23:44:00,
2013-12-24 15:45:00,46.6,18.4,30.30,ENE,68,3.1,3.1,32,0.00,,SKC,0.00,VWS V14.00,2013-12-24 23:45:00,
2013-12-24 15:48:00,46.4,18.9,30.30,East,90,2.9,2.9,33,0.00,,SKC,0.00,VWS V14.00,2013-12-24 23:48:00,
2013-12-24 15:49:00,46.4,18.9,30.30,East,90,0.0,0.0,33,0.00,,SKC,0.00,VWS V14.00,2013-12-24 23:49:00,
2013-12-24 15:50:00,46.3,18.8,30.30,East,90,1.3,1.3,33,0.00,,SKC,0.00,VWS V14.00,2013-12-24 23:50:00,
2013-12-24 15:53:00,46.3,18.8,30.30,East,90,1.3,1.3,33,0.00,,SKC,0.00,VWS V14.00,2013-12-24 23:53:00,
2013-12-24 15:54:00,46.1,18.6,30.30,East,90,3.4,3.4,33,0.00,,SKC,0.00,VWS V14.00,2013-12-24 23:54:00,
2013-12-24 15:55:00,45.7,19.0,30.30,East,90,2.7,2.7,34,0.00,,SKC,0.00,VWS V14.00,2013-12-24 23:55:00,
2013-12-24 15:58:00,45.5,20.1,30.30,East,90,3.1,3.1,36,0.00,,SKC,0.00,VWS V14.00,2013-12-24 23:58:00,
2013-12-24 15:59:00,45.5,20.1,30.30,East,90,2.7,2.7,36,0.00,,SKC,0.00,VWS V14.00,2013-12-24 23:59:00,
2013-12-24 16:00:00,45.4,20.0,30.30,East,90,3.6,3.6,36,0.00,,SKC,0.00,VWS V14.00,2013-12-25 00:00:00,
2013-12-24 16:01:00,45.2,19.8,30.30,East,90,0.0,0.0,36,0.00,,SKC,0.00,VWS V14.00,2013-12-25 00:01:00,
2013-12-24 16:04:00,44.5,19.8,30.30,East,90,2.9,2.9,37,0.00,,SKC,0.00,VWS V14.00,2013-12-25 00:04:00,
2013-12-24 16:05:00,44.1,19.5,30.30,East,90,1.6,1.6,37,0.00,,SKC,0.00,VWS V14.00,2013-12-25 00:05:00,
2013-12-24 16:06:00,43.9,19.4,30.30,East,90,2.5,2.5,37,0.00,,SKC,0.00,VWS V14.00,2013-12-25 00:06:00,
2013-12-24 16:09:00,43.6,19.0,30.30,East,90,0.0,0.0,37,0.00,,SKC,0.00,VWS V14.00,2013-12-25 00:09:00,
2013-12-24 16:11:00,43.4,18.9,30.30,East,90,2.5,2.5,37,0.00,,SKC,0.00,VWS V14.00,2013-12-25 00:11:00,
2013-12-24 16:14:00,42.8,19.0,30.30,East,90,0.0,0.0,38,0.00,,SKC,0.00,VWS V14.00,2013-12-25 00:14:00,
2013-12-24 16:15:00,42.8,19.0,30.30,East,90,0.0,0.0,38,0.00,,SKC,0.00,VWS V14.00,2013-12-25 00:15:00,
2013-12-24 16:16:00,42.7,18.8,30.30,East,90,1.6,1.6,38,0.00,,SKC,0.00,VWS V14.00,2013-12-25 00:16:00,
2013-12-24 16:19:00,42.3,18.5,30.30,East,90,0.0,0.0,38,0.00,,SKC,0.00,VWS V14.00,2013-12-25 00:19:00,
2013-12-24 16:20:00,42.3,18.5,30.30,East,90,0.0,0.0,38,0.00,,SKC,0.00,VWS V14.00,2013-12-25 00:20:00,
2013-12-24 16:21:00,41.9,18.2,30.30,East,90,0.0,0.0,38,0.00,,SKC,0.00,VWS V14.00,2013-12-25 00:21:00,
2013-12-24 16:24:00,40.9,17.2,30.30,East,90,0.0,0.0,38,0.00,,SKC,0.00,VWS V14.00,2013-12-25 00:24:00,
2013-12-24 16:25:00,40.3,16.8,30.30,SE,135,0.0,0.0,38,0.00,,SKC,0.00,VWS V14.00,2013-12-25 00:25:00,
2013-12-24 16:26:00,40.0,16.4,30.30,SE,135,0.0,0.0,38,0.00,,SKC,0.00,VWS V14.00,2013-12-25 00:26:00,
2013-12-24 16:29:00,39.6,16.1,30.30,SE,135,0.0,0.0,38,0.00,,SKC,0.00,VWS V14.00,2013-12-25 00:29:00,
2013-12-24 16:30:00,39.6,16.1,30.30,SE,135,0.0,0.0,38,0.00,,SKC,0.00,VWS V14.00,2013-12-25 00:30:00,
2013-12-24 16:31:00,39.1,16.2,30.30,SE,135,0.0,0.0,39,0.00,,SKC,0.00,VWS V14.00,2013-12-25 00:31:00,
2013-12-24 16:32:00,38.7,15.9,30.30,SE,135,0.0,0.0,39,0.00,,SKC,0.00,VWS V14.00,2013-12-25 00:32:00,
2013-12-24 16:35:00,38.0,15.8,30.30,SE,135,0.0,0.0,40,0.00,,SKC,0.00,VWS V14.00,2013-12-25 00:35:00,
2013-12-24 16:36:00,37.8,15.7,30.30,SE,135,0.0,0.0,40,0.00,,SKC,0.00,VWS V14.00,2013-12-25 00:36:00,
2013-12-24 16:37:00,37.6,16.1,30.30,SE,135,0.0,0.0,41,0.00,,SKC,0.00,VWS V14.00,2013-12-25 00:37:00,
2013-12-24 16:40:00,37.1,15.6,30.30,SE,135,0.0,0.0,41,0.00,,SKC,0.00,VWS V14.00,2013-12-25 00:40:00,
2013-12-24 16:41:00,36.9,15.4,30.30,SE,135,0.0,0.0,41,0.00,,SKC,0.00,VWS V14.00,2013-12-25 00:41:00,
2013-12-24 16:42:00,36.7,15.8,30.30,SE,135,0.0,0.0,42,0.00,,SKC,0.00,VWS V14.00,2013-12-25 00:42:00,
2013-12-24 16:45:00,36.2,15.9,30.33,SE,135,0.0,0.0,43,0.00,,SKC,0.00,VWS V14.00,2013-12-25 00:45:00,
2013-12-24 16:46:00,36.0,15.7,30.33,SE,135,0.0,0.0,43,0.00,,SKC,0.00,VWS V14.00,2013-12-25 00:46:00,
2013-12-24 16:47:00,35.8,15.5,30.33,SE,135,0.0,0.0,43,0.00,,SKC,0.00,VWS V14.00,2013-12-25 00:47:00,
2013-12-24 16:50:00,35.3,15.6,30.33,SE,135,0.0,0.0,44,0.00,,SKC,0.00,VWS V14.00,2013-12-25 00:50:00,
2013-12-24 16:51:00,35.3,15.6,30.33,SE,135,0.0,0.0,44,0.00,,SKC,0.00,VWS V14.00,2013-12-25 00:51:00,
2013-12-24 16:52:00,35.3,15.6,30.33,SE,135,0.0,0.0,44,0.00,,SKC,0.00,VWS V14.00,2013-12-25 00:52:00,
2013-12-24 16:55:00,34.7,15.6,30.33,SE,135,0.0,0.0,45,0.00,,SKC,0.00,VWS V14.00,2013-12-25 00:55:00,
2013-12-24 16:56:00,34.6,15.4,30.33,SE,135,0.0,0.0,45,0.00,,SKC,0.00,VWS V14.00,2013-12-25 00:56:00,
2013-12-24 16:57:00,34.4,15.2,30.33,SE,135,0.0,0.0,45,0.00,,SKC,0.00,VWS V14.00,2013-12-25 00:57:00,
2013-12-24 16:58:00,34.4,15.2,30.33,SE,135,0.0,0.0,45,0.00,,SKC,0.00,VWS V14.00,2013-12-25 00:58:00,
2013-12-24 17:00:00,34.2,15.6,30.33,SE,135,0.0,0.0,46,0.00,,SKC,0.00,VWS V14.00,2013-12-25 01:00:00,
2013-12-24 17:01:00,34.0,15.9,30.33,SE,135,0.0,0.0,47,0.00,,SKC,0.00,VWS V14.00,2013-12-25 01:01:00,
2013-12-24 17:02:00,33.7,15.6,30.33,SE,135,0.0,0.0,47,0.00,,SKC,0.00,VWS V14.00,2013-12-25 01:02:00,
2013-12-24 17:03:00,33.7,15.6,30.33,SE,135,0.0,0.0,47,0.00,,SKC,0.00,VWS V14.00,2013-12-25 01:03:00,
2013-12-24 17:05:00,33.5,16.4,30.33,SE,135,0.0,0.0,49,0.00,,SKC,0.00,VWS V14.00,2013-12-25 01:05:00,
2013-12-24 17:06:00,33.5,17.8,30.33,North,0,0.0,0.0,52,0.00,,SKC,0.00,VWS V14.00,2013-12-25 01:06:00,
2013-12-24 17:08:00,33.1,18.7,30.33,North,0,0.0,0.0,55,0.00,,SKC,0.00,VWS V14.00,2013-12-25 01:08:00,
2013-12-24 17:09:00,33.1,18.7,30.33,North,0,0.0,0.0,55,0.00,,SKC,0.00,VWS V14.00,2013-12-25 01:09:00,
2013-12-24 17:10:00,32.9,19.0,30.33,North,0,0.0,0.0,56,0.00,,SKC,0.00,VWS V14.00,2013-12-25 01:10:00,
2013-12-24 17:11:00,32.8,19.2,30.33,North,0,0.0,0.0,57,0.00,,SKC,0.00,VWS V14.00,2013-12-25 01:11:00,
2013-12-24 17:12:00,32.6,19.5,30.33,North,0,0.0,0.0,58,0.00,,SKC,0.00,VWS V14.00,2013-12-25 01:12:00,
2013-12-24 17:13:00,32.4,18.5,30.33,North,0,0.0,0.0,56,0.00,,SKC,0.00,VWS V14.00,2013-12-25 01:13:00,
2013-12-24 17:14:00,32.4,18.5,30.36,North,0,0.0,0.0,56,0.00,,SKC,0.00,VWS V14.00,2013-12-25 01:14:00,
2013-12-24 17:15:00,32.2,17.5,30.36,North,0,0.0,0.0,54,0.00,,SKC,0.00,VWS V14.00,2013-12-25 01:15:00,
2013-12-24 17:16:00,32.0,17.3,30.36,North,0,0.0,0.0,54,0.00,,SKC,0.00,VWS V14.00,2013-12-25 01:16:00,
2013-12-24 17:17:00,32.0,17.3,30.36,North,0,0.0,0.0,54,0.00,,SKC,0.00,VWS V14.00,2013-12-25 01:17:00,
2013-12-24 17:18:00,32.0,16.9,30.36,North,0,0.0,0.0,53,0.00,,SKC,0.00,VWS V14.00,2013-12-25 01:18:00,
2013-12-24 17:19:00,31.9,16.7,30.36,North,0,0.0,0.0,53,0.00,,SKC,0.00,VWS V14.00,2013-12-25 01:19:00,
2013-12-24 17:20:00,31.9,16.2,30.36,North,0,0.0,0.0,52,0.00,,SKC,0.00,VWS V14.00,2013-12-25 01:20:00,
2013-12-24 17:21:00,31.7,16.5,30.36,North,0,0.0,0.0,53,0.00,,SKC,0.00,VWS V14.00,2013-12-25 01:21:00,
2013-12-24 17:22:00,31.7,16.5,30.36,North,0,0.0,0.0,53,0.00,,SKC,0.00,VWS V14.00,2013-12-25 01:22:00,
2013-12-24 17:23:00,31.5,16.4,30.36,North,0,0.0,0.0,53,0.00,,SKC,0.00,VWS V14.00,2013-12-25 01:23:00,
2013-12-24 17:24:00,31.3,16.2,30.36,North,0,0.0,0.0,53,0.00,,SKC,0.00,VWS V14.00,2013-12-25 01:24:00,
2013-12-24 17:25:00,31.3,16.2,30.36,North,0,0.0,0.0,53,0.00,,SKC,0.00,VWS V14.00,2013-12-25 01:25:00,
2013-12-24 17:26:00,31.1,16.0,30.36,North,0,0.0,0.0,53,0.00,,SKC,0.00,VWS V14.00,2013-12-25 01:26:00,
2013-12-24 17:27:00,31.1,16.0,30.36,North,0,0.0,0.0,53,0.00,,SKC,0.00,VWS V14.00,2013-12-25 01:27:00,
2013-12-24 17:29:00,31.1,16.5,30.33,North,0,0.0,0.0,54,0.00,,SKC,0.00,VWS V14.00,2013-12-25 01:29:00,
2013-12-24 17:30:00,31.1,16.0,30.33,North,0,0.0,0.0,53,0.00,,SKC,0.00,VWS V14.00,2013-12-25 01:30:00,
2013-12-24 17:31:00,31.1,16.0,30.33,North,0,0.0,0.0,53,0.00,,SKC,0.00,VWS V14.00,2013-12-25 01:31:00,
2013-12-24 17:33:00,31.1,16.0,30.33,North,0,0.0,0.0,53,0.00,,SKC,0.00,VWS V14.00,2013-12-25 01:33:00,
2013-12-24 17:34:00,31.0,15.9,30.33,North,0,0.0,0.0,53,0.00,,SKC,0.00,VWS V14.00,2013-12-25 01:34:00,
2013-12-24 17:36:00,30.6,15.5,30.33,North,0,0.0,0.0,53,0.00,,SKC,0.00,VWS V14.00,2013-12-25 01:36:00,
2013-12-24 17:38:00,30.4,15.8,30.33,North,0,0.0,0.0,54,0.00,,SKC,0.00,VWS V14.00,2013-12-25 01:38:00,
2013-12-24 17:39:00,30.4,15.8,30.33,North,0,0.0,0.0,54,0.00,,SKC,0.00,VWS V14.00,2013-12-25 01:39:00,
2013-12-24 17:41:00,30.4,15.8,30.33,North,0,0.0,0.0,54,0.00,,SKC,0.00,VWS V14.00,2013-12-25 01:41:00,
2013-12-24 17:43:00,30.1,15.4,30.33,North,0,0.0,0.0,54,0.00,,SKC,0.00,VWS V14.00,2013-12-25 01:43:00,
2013-12-24 17:44:00,30.1,15.0,30.36,North,0,0.0,0.0,53,0.00,,SKC,0.00,VWS V14.00,2013-12-25 01:44:00,
2013-12-24 17:46:00,30.1,15.4,30.36,North,0,0.0,0.0,54,0.00,,SKC,0.00,VWS V14.00,2013-12-25 01:46:00,
2013-12-24 17:48:00,30.1,16.3,30.36,North,0,0.0,0.0,56,0.00,,SKC,0.00,VWS V14.00,2013-12-25 01:48:00,
2013-12-24 17:49:00,30.1,16.3,30.36,North,0,0.0,0.0,56,0.00,,SKC,0.00,VWS V14.00,2013-12-25 01:49:00,
2013-12-24 17:50:00,30.1,16.3,30.36,North,0,0.0,0.0,56,0.00,,SKC,0.00,VWS V14.00,2013-12-25 01:50:00,
2013-12-24 17:51:00,30.1,17.9,30.36,North,0,0.0,0.0,60,0.00,,SKC,0.00,VWS V14.00,2013-12-25 01:51:00,
2013-12-24 17:53:00,29.9,18.8,30.36,North,0,0.0,0.0,63,0.00,,SKC,0.00,VWS V14.00,2013-12-25 01:53:00,
2013-12-24 17:54:00,29.9,18.8,30.36,North,0,0.0,0.0,63,0.00,,SKC,0.00,VWS V14.00,2013-12-25 01:54:00,
2013-12-24 17:55:00,29.9,18.1,30.36,North,0,0.0,0.0,61,0.00,,SKC,0.00,VWS V14.00,2013-12-25 01:55:00,
2013-12-24 17:56:00,29.7,17.1,30.36,North,0,0.0,0.0,59,0.00,,SKC,0.00,VWS V14.00,2013-12-25 01:56:00,
2013-12-24 17:59:00,29.7,16.8,30.36,North,0,0.0,0.0,58,0.00,,SKC,0.00,VWS V14.00,2013-12-25 01:59:00,
2013-12-24 18:00:00,29.7,16.4,30.36,North,0,0.0,0.0,57,0.00,,SKC,0.00,VWS V14.00,2013-12-25 02:00:00,
2013-12-24 18:01:00,29.9,16.5,30.36,North,0,0.0,0.0,57,0.00,,SKC,0.00,VWS V14.00,2013-12-25 02:01:00,
2013-12-24 18:04:00,29.9,16.5,30.36,North,0,0.9,0.9,57,0.00,,SKC,0.00,VWS V14.00,2013-12-25 02:04:00,
2013-12-24 18:05:00,29.9,16.5,30.36,North,0,0.0,0.0,57,0.00,,SKC,0.00,VWS V14.00,2013-12-25 02:05:00,
2013-12-24 18:06:00,29.7,16.4,30.36,North,0,0.0,0.0,57,0.00,,SKC,0.00,VWS V14.00,2013-12-25 02:06:00,
2013-12-24 18:09:00,29.5,16.6,30.36,North,0,0.0,0.0,58,0.00,,SKC,0.00,VWS V14.00,2013-12-25 02:09:00,
2013-12-24 18:10:00,29.5,16.6,30.36,North,0,0.0,0.0,58,0.00,,SKC,0.00,VWS V14.00,2013-12-25 02:10:00,
2013-12-24 18:11:00,29.3,16.4,30.36,North,0,0.0,0.0,58,0.00,,SKC,0.00,VWS V14.00,2013-12-25 02:11:00,
2013-12-24 18:14:00,29.5,16.6,30.36,North,0,0.0,0.0,58,0.00,,SKC,0.00,VWS V14.00,2013-12-25 02:14:00,
2013-12-24 18:15:00,29.5,16.6,30.36,NNW,338,0.0,0.0,58,0.00,,SKC,0.00,VWS V14.00,2013-12-25 02:15:00,
2013-12-24 18:16:00,29.5,16.6,30.36,NNW,338,0.0,0.0,58,0.00,,SKC,0.00,VWS V14.00,2013-12-25 02:16:00,
2013-12-24 18:17:00,29.7,17.1,30.36,NNW,338,0.0,0.0,59,0.00,,SKC,0.00,VWS V14.00,2013-12-25 02:17:00,
2013-12-24 18:19:00,29.5,17.4,30.36,NNW,338,0.0,0.0,60,0.00,,SKC,0.00,VWS V14.00,2013-12-25 02:19:00,
2013-12-24 18:20:00,29.5,17.4,30.36,NNW,338,0.0,0.0,60,0.00,,SKC,0.00,VWS V14.00,2013-12-25 02:20:00,
2013-12-24 18:21:00,29.7,17.5,30.36,NNW,338,0.0,0.0,60,0.00,,SKC,0.00,VWS V14.00,2013-12-25 02:21:00,
2013-12-24 18:22:00,29.7,17.5,30.36,NNW,338,0.0,0.0,60,0.00,,SKC,0.00,VWS V14.00,2013-12-25 02:22:00,
2013-12-24 18:25:00,29.5,17.7,30.36,NNW,338,0.0,0.0,61,0.00,,SKC,0.00,VWS V14.00,2013-12-25 02:25:00,
2013-12-24 18:26:00,29.5,17.7,30.36,NNW,338,0.0,0.0,61,0.00,,SKC,0.00,VWS V14.00,2013-12-25 02:26:00,
2013-12-24 18:27:00,29.5,17.7,30.36,NNW,338,0.0,0.0,61,0.00,,SKC,0.00,VWS V14.00,2013-12-25 02:27:00,
2013-12-24 18:30:00,29.7,18.7,30.36,NNW,338,0.0,0.0,63,0.00,,SKC,0.00,VWS V14.00,2013-12-25 02:30:00,
2013-12-24 18:31:00,29.5,18.5,30.36,NNW,338,0.0,0.0,63,0.00,,SKC,0.00,VWS V14.00,2013-12-25 02:31:00,
2013-12-24 18:32:00,29.5,18.5,30.36,NNW,338,0.0,0.0,63,0.00,,SKC,0.00,VWS V14.00,2013-12-25 02:32:00,
2013-12-24 18:35:00,29.3,17.6,30.36,NNW,338,0.0,0.0,61,0.00,,SKC,0.00,VWS V14.00,2013-12-25 02:35:00,
2013-12-24 18:36:00,29.3,17.6,30.36,NNW,338,0.0,0.0,61,0.00,,SKC,0.00,VWS V14.00,2013-12-25 02:36:00,
2013-12-24 18:37:00,29.3,17.6,30.36,NNW,338,0.0,0.0,61,0.00,,SKC,0.00,VWS V14.00,2013-12-25 02:37:00,
2013-12-24 18:40:00,29.2,17.4,30.36,NNW,338,0.0,0.0,61,0.00,,SKC,0.00,VWS V14.00,2013-12-25 02:40:00,
2013-12-24 18:41:00,29.2,17.8,30.36,NNW,338,0.0,0.0,62,0.00,,SKC,0.00,VWS V14.00,2013-12-25 02:41:00,
2013-12-24 18:42:00,29.2,17.8,30.36,NNW,338,0.0,0.0,62,0.00,,SKC,0.00,VWS V14.00,2013-12-25 02:42:00,
2013-12-24 18:43:00,29.2,17.8,30.36,NNW,338,0.0,0.0,62,0.00,,SKC,0.00,VWS V14.00,2013-12-25 02:43:00,
2013-12-24 18:45:00,29.0,17.6,30.36,NNW,338,0.0,0.0,62,0.00,,SKC,0.00,VWS V14.00,2013-12-25 02:45:00,
2013-12-24 18:46:00,29.0,17.6,30.36,NNW,338,0.0,0.0,62,0.00,,SKC,0.00,VWS V14.00,2013-12-25 02:46:00,
2013-12-24 18:47:00,29.0,18.0,30.36,NNW,338,0.0,0.0,63,0.00,,SKC,0.00,VWS V14.00,2013-12-25 02:47:00,
2013-12-24 18:48:00,29.0,18.0,30.36,NNW,338,0.0,0.0,63,0.00,,SKC,0.00,VWS V14.00,2013-12-25 02:48:00,
2013-12-24 18:51:00,29.0,18.0,30.36,NNW,338,0.0,0.0,63,0.00,,SKC,0.00,VWS V14.00,2013-12-25 02:51:00,
2013-12-24 18:52:00,28.8,17.8,30.36,NNW,338,0.0,0.0,63,0.00,,SKC,0.00,VWS V14.00,2013-12-25 02:52:00,
2013-12-24 18:53:00,28.8,17.8,30.36,NNW,338,0.0,0.0,63,0.00,,SKC,0.00,VWS V14.00,2013-12-25 02:53:00,
2013-12-24 18:56:00,28.8,17.8,30.36,NNW,338,0.0,0.0,63,0.00,,SKC,0.00,VWS V14.00,2013-12-25 02:56:00,
2013-12-24 18:57:00,28.8,17.8,30.36,NNW,338,0.0,0.0,63,0.00,,SKC,0.00,VWS V14.00,2013-12-25 02:57:00,
2013-12-24 19:02:00,28.3,18.0,30.33,NNW,338,0.0,0.0,65,0.00,,SKC,0.00,VWS V14.00,2013-12-25 03:02:00,
2013-12-24 19:03:00,28.3,17.7,30.33,NNW,338,0.0,0.0,64,0.00,,SKC,0.00,VWS V14.00,2013-12-25 03:03:00,
2013-12-24 19:07:00,28.1,17.5,30.33,NNW,338,0.0,0.0,64,0.00,,SKC,0.00,VWS V14.00,2013-12-25 03:07:00,
2013-12-24 19:08:00,28.1,17.5,30.33,NNW,338,0.0,0.0,64,0.00,,SKC,0.00,VWS V14.00,2013-12-25 03:08:00,
2013-12-24 19:09:00,28.1,17.5,30.33,NNW,338,0.0,0.0,64,0.00,,SKC,0.00,VWS V14.00,2013-12-25 03:09:00,
2013-12-24 19:12:00,27.9,17.7,30.33,NNW,338,0.0,0.0,65,0.00,,SKC,0.00,VWS V14.00,2013-12-25 03:12:00,
2013-12-24 19:13:00,27.7,17.5,30.33,NNW,338,0.0,0.0,65,0.00,,SKC,0.00,VWS V14.00,2013-12-25 03:13:00,
2013-12-24 19:14:00,27.5,17.0,30.36,NNW,338,0.0,0.0,64,0.00,,SKC,0.00,VWS V14.00,2013-12-25 03:14:00,
2013-12-24 19:17:00,27.2,16.6,30.36,NNW,338,0.0,0.0,64,0.00,,SKC,0.00,VWS V14.00,2013-12-25 03:17:00,
2013-12-24 19:18:00,27.2,16.3,30.36,NNW,338,0.0,0.0,63,0.00,,SKC,0.00,VWS V14.00,2013-12-25 03:18:00,
2013-12-24 19:19:00,27.0,16.1,30.36,NNW,338,0.0,0.0,63,0.00,,SKC,0.00,VWS V14.00,2013-12-25 03:19:00,
2013-12-24 19:22:00,27.0,16.1,30.36,NNW,338,0.0,0.0,63,0.00,,SKC,0.00,VWS V14.00,2013-12-25 03:22:00,
2013-12-24 19:23:00,26.8,15.9,30.36,NNW,338,0.0,0.0,63,0.00,,SKC,0.00,VWS V14.00,2013-12-25 03:23:00,
2013-12-24 19:24:00,26.6,16.1,30.36,NNW,338,0.0,0.0,64,0.00,,SKC,0.00,VWS V14.00,2013-12-25 03:24:00,
2013-12-24 19:27:00,26.5,15.9,30.36,NNW,338,0.0,0.0,64,0.00,,SKC,0.00,VWS V14.00,2013-12-25 03:27:00,
2013-12-24 19:28:00,26.3,16.1,30.36,NNW,338,0.0,0.0,65,0.00,,SKC,0.00,VWS V14.00,2013-12-25 03:28:00,
2013-12-24 19:30:00,26.1,15.6,30.33,NNW,338,0.0,0.0,64,0.00,,SKC,0.00,VWS V14.00,2013-12-25 03:30:00,
2013-12-24 19:32:00,25.9,15.4,30.33,NNW,338,0.0,0.0,64,0.00,,SKC,0.00,VWS V14.00,2013-12-25 03:32:00,
2013-12-24 19:33:00,25.9,15.8,30.33,NNW,338,0.0,0.0,65,0.00,,SKC,0.00,VWS V14.00,2013-12-25 03:33:00,
2013-12-24 19:34:00,25.7,15.6,30.33,NNW,338,0.0,0.0,65,0.00,,SKC,0.00,VWS V14.00,2013-12-25 03:34:00,
2013-12-24 19:35:00,25.7,15.6,30.33,NNW,338,0.0,0.0,65,0.00,,SKC,0.00,VWS V14.00,2013-12-25 03:35:00,
2013-12-24 19:37:00,25.6,15.4,30.33,NNW,338,0.0,0.0,65,0.00,,SKC,0.00,VWS V14.00,2013-12-25 03:37:00,
2013-12-24 19:38:00,25.6,15.4,30.33,NNW,338,0.0,0.0,65,0.00,,SKC,0.00,VWS V14.00,2013-12-25 03:38:00,
2013-12-24 19:39:00,25.4,15.6,30.33,NNW,338,0.0,0.0,66,0.00,,SKC,0.00,VWS V14.00,2013-12-25 03:39:00,
2013-12-24 19:40:00,25.2,15.4,30.33,NNW,338,0.0,0.0,66,0.00,,SKC,0.00,VWS V14.00,2013-12-25 03:40:00,
2013-12-24 19:43:00,25.2,15.8,30.33,NNW,338,0.0,0.0,67,0.00,,SKC,0.00,VWS V14.00,2013-12-25 03:43:00,
2013-12-24 19:44:00,25.2,16.1,30.36,NNW,338,0.0,0.0,68,0.00,,SKC,0.00,VWS V14.00,2013-12-25 03:44:00,
2013-12-24 19:45:00,25.2,16.1,30.36,NNW,338,0.0,0.0,68,0.00,,SKC,0.00,VWS V14.00,2013-12-25 03:45:00,
2013-12-24 19:48:00,25.0,16.0,30.36,NNW,338,0.0,0.0,68,0.00,,SKC,0.00,VWS V14.00,2013-12-25 03:48:00,
2013-12-24 19:49:00,25.2,16.1,30.36,NNW,338,0.0,0.0,68,0.00,,SKC,0.00,VWS V14.00,2013-12-25 03:49:00,
2013-12-24 19:50:00,25.2,16.1,30.36,NNW,338,0.0,0.0,68,0.00,,SKC,0.00,VWS V14.00,2013-12-25 03:50:00,
2013-12-24 19:53:00,25.2,16.1,30.36,NNW,338,0.0,0.0,68,0.00,,SKC,0.00,VWS V14.00,2013-12-25 03:53:00,
2013-12-24 19:54:00,25.2,16.1,30.36,NNW,338,0.0,0.0,68,0.00,,SKC,0.00,VWS V14.00,2013-12-25 03:54:00,
2013-12-24 19:56:00,25.2,16.1,30.36,NNW,338,0.0,0.0,68,0.00,,SKC,0.00,VWS V14.00,2013-12-25 03:56:00,
2013-12-24 19:58:00,25.2,16.1,30.36,NNW,338,0.0,0.0,68,0.00,,SKC,0.00,VWS V14.00,2013-12-25 03:58:00,
2013-12-24 19:59:00,25.2,16.1,30.36,NNW,338,0.0,0.0,68,0.00,,SKC,0.00,VWS V14.00,2013-12-25 03:59:00,
2013-12-24 20:00:00,25.2,16.1,30.36,NNW,338,0.0,0.0,68,0.00,,SKC,0.00,VWS V14.00,2013-12-25 04:00:00,
2013-12-24 20:01:00,25.2,16.1,30.36,NNW,338,0.0,0.0,68,0.00,,SKC,0.00,VWS V14.00,2013-12-25 04:01:00,
2013-12-24 20:03:00,24.8,15.8,30.36,NNW,338,0.0,0.0,68,0.00,,SKC,0.00,VWS V14.00,2013-12-25 04:03:00,
2013-12-24 20:04:00,24.7,15.6,30.36,NNW,338,0.0,0.0,68,0.00,,SKC,0.00,VWS V14.00,2013-12-25 04:04:00,
2013-12-24 20:05:00,24.7,15.6,30.36,NNW,338,0.0,0.0,68,0.00,,SKC,0.00,VWS V14.00,2013-12-25 04:05:00,
2013-12-24 20:06:00,24.5,15.4,30.36,NNW,338,0.0,0.0,68,0.00,,SKC,0.00,VWS V14.00,2013-12-25 04:06:00,
2013-12-24 20:08:00,24.5,15.4,30.36,NNW,338,0.0,0.0,68,0.00,,SKC,0.00,VWS V14.00,2013-12-25 04:08:00,
2013-12-24 20:09:00,24.5,15.4,30.36,NNW,338,0.0,0.0,68,0.00,,SKC,0.00,VWS V14.00,2013-12-25 04:09:00,
2013-12-24 20:10:00,24.5,15.4,30.36,NNW,338,0.0,0.0,68,0.00,,SKC,0.00,VWS V14.00,2013-12-25 04:10:00,
2013-12-24 20:11:00,24.5,15.4,30.36,NNW,338,0.0,0.0,68,0.00,,SKC,0.00,VWS V14.00,2013-12-25 04:11:00,
2013-12-24 20:13:00,24.7,15.9,30.36,NNW,338,0.0,0.0,69,0.00,,SKC,0.00,VWS V14.00,2013-12-25 04:13:00,
2013-12-24 20:14:00,24.7,15.9,30.36,NNW,338,0.0,0.0,69,0.00,,SKC,0.00,VWS V14.00,2013-12-25 04:14:00,
2013-12-24 20:15:00,24.8,16.1,30.36,NNW,338,0.0,0.0,69,0.00,,SKC,0.00,VWS V14.00,2013-12-25 04:15:00,
2013-12-24 20:16:00,24.8,16.1,30.36,NNW,338,0.0,0.0,69,0.00,,SKC,0.00,VWS V14.00,2013-12-25 04:16:00,
2013-12-24 20:17:00,25.0,16.6,30.36,NNW,338,0.0,0.0,70,0.00,,SKC,0.00,VWS V14.00,2013-12-25 04:17:00,
2013-12-24 20:18:00,25.0,16.6,30.36,NNW,338,0.0,0.0,70,0.00,,SKC,0.00,VWS V14.00,2013-12-25 04:18:00,
2013-12-24 20:19:00,25.0,16.6,30.36,NNW,338,0.0,0.0,70,0.00,,SKC,0.00,VWS V14.00,2013-12-25 04:19:00,
2013-12-24 20:20:00,25.2,16.8,30.36,NNW,338,0.0,0.0,70,0.00,,SKC,0.00,VWS V14.00,2013-12-25 04:20:00,
2013-12-24 20:21:00,25.2,16.8,30.36,NNW,338,0.0,0.0,70,0.00,,SKC,0.00,VWS V14.00,2013-12-25 04:21:00,
2013-12-24 20:22:00,25.2,16.8,30.36,NNW,338,0.0,0.0,70,0.00,,SKC,0.00,VWS V14.00,2013-12-25 04:22:00,
2013-12-24 20:24:00,25.2,17.1,30.36,NNW,338,0.0,0.0,71,0.00,,SKC,0.00,VWS V14.00,2013-12-25 04:24:00,
2013-12-24 20:26:00,25.4,17.0,30.36,NNW,338,0.0,0.0,70,0.00,,SKC,0.00,VWS V14.00,2013-12-25 04:26:00,
2013-12-24 20:28:00,25.4,17.0,30.33,NNW,338,0.0,0.0,70,0.00,,SKC,0.00,VWS V14.00,2013-12-25 04:28:00,
2013-12-24 20:29:00,25.4,17.0,30.33,NNW,338,0.0,0.0,70,0.00,,SKC,0.00,VWS V14.00,2013-12-25 04:29:00,
2013-12-24 20:31:00,25.6,17.5,30.33,NNW,338,0.0,0.0,71,0.00,,SKC,0.00,VWS V14.00,2013-12-25 04:31:00,
2013-12-24 20:33:00,25.2,17.1,30.33,NNW,338,0.0,0.0,71,0.00,,SKC,0.00,VWS V14.00,2013-12-25 04:33:00,
2013-12-24 20:34:00,25.0,16.6,30.33,NNW,338,0.0,0.0,70,0.00,,SKC,0.00,VWS V14.00,2013-12-25 04:34:00,
2013-12-24 20:35:00,25.0,16.6,30.33,NNW,338,0.0,0.0,70,0.00,,SKC,0.00,VWS V14.00,2013-12-25 04:35:00,
2013-12-24 20:36:00,24.8,16.5,30.33,NNW,338,0.0,0.0,70,0.00,,SKC,0.00,VWS V14.00,2013-12-25 04:36:00,
2013-12-24 20:39:00,24.7,16.3,30.33,East,90,0.0,0.0,70,0.00,,SKC,0.00,VWS V14.00,2013-12-25 04:39:00,
2013-12-24 20:40:00,24.5,16.1,30.33,East,90,0.0,0.0,70,0.00,,SKC,0.00,VWS V14.00,2013-12-25 04:40:00,
2013-12-24 20:41:00,24.5,16.1,30.33,East,90,0.0,0.0,70,0.00,,SKC,0.00,VWS V14.00,2013-12-25 04:41:00,
2013-12-24 20:44:00,24.5,16.1,30.36,East,90,0.0,0.0,70,0.00,,SKC,0.00,VWS V14.00,2013-12-25 04:44:00,
2013-12-24 20:45:00,24.5,16.1,30.36,East,90,0.0,0.0,70,0.00,,SKC,0.00,VWS V14.00,2013-12-25 04:45:00,
2013-12-24 20:46:00,24.3,15.9,30.36,East,90,0.0,0.0,70,0.00,,SKC,0.00,VWS V14.00,2013-12-25 04:46:00,
2013-12-24 20:47:00,24.3,15.9,30.36,East,90,0.0,0.0,70,0.00,,SKC,0.00,VWS V14.00,2013-12-25 04:47:00,
2013-12-24 20:49:00,24.3,16.3,30.36,East,90,0.0,0.0,71,0.00,,SKC,0.00,VWS V14.00,2013-12-25 04:49:00,
2013-12-24 20:50:00,24.1,16.1,30.36,East,90,0.0,0.0,71,0.00,,SKC,0.00,VWS V14.00,2013-12-25 04:50:00,
2013-12-24 20:51:00,24.1,16.1,30.36,East,90,0.0,0.0,71,0.00,,SKC,0.00,VWS V14.00,2013-12-25 04:51:00,
2013-12-24 20:52:00,23.8,15.8,30.36,East,90,0.0,0.0,71,0.00,,SKC,0.00,VWS V14.00,2013-12-25 04:52:00,
2013-12-24 20:54:00,23.6,15.2,30.36,East,90,0.0,0.0,70,0.00,,SKC,0.00,VWS V14.00,2013-12-25 04:54:00,
2013-12-24 20:55:00,23.6,15.2,30.36,East,90,0.0,0.0,70,0.00,,SKC,0.00,VWS V14.00,2013-12-25 04:55:00,
2013-12-24 20:56:00,23.6,15.2,30.36,East,90,0.0,0.0,70,0.00,,SKC,0.00,VWS V14.00,2013-12-25 04:56:00,
2013-12-24 20:58:00,23.4,14.8,30.36,East,90,0.0,0.0,69,0.00,,SKC,0.00,VWS V14.00,2013-12-25 04:58:00,
2013-12-24 20:59:00,23.4,14.8,30.36,East,90,0.0,0.0,69,0.00,,SKC,0.00,VWS V14.00,2013-12-25 04:59:00,
2013-12-24 21:00:00,23.4,14.8,30.36,East,90,0.0,0.0,69,0.00,,SKC,0.00,VWS V14.00,2013-12-25 05:00:00,
2013-12-24 21:01:00,23.2,14.6,30.36,East,90,0.0,0.0,69,0.00,,SKC,0.00,VWS V14.00,2013-12-25 05:01:00,
2013-12-24 21:06:00,23.0,14.7,30.36,East,90,0.0,0.0,70,0.00,,SKC,0.00,VWS V14.00,2013-12-25 05:06:00,
2013-12-24 21:11:00,22.9,14.6,30.36,East,90,0.0,0.0,70,0.00,,SKC,0.00,VWS V14.00,2013-12-25 05:11:00,
2013-12-24 21:12:00,22.9,14.6,30.36,East,90,0.0,0.0,70,0.00,,SKC,0.00,VWS V14.00,2013-12-25 05:12:00,
2013-12-24 21:16:00,23.6,15.2,30.33,SE,135,0.0,0.0,70,0.00,,SKC,0.00,VWS V14.00,2013-12-25 05:16:00,
2013-12-24 21:17:00,23.6,15.6,30.33,SE,135,0.0,0.0,71,0.00,,SKC,0.00,VWS V14.00,2013-12-25 05:17:00,
2013-12-24 21:21:00,23.0,15.1,30.33,SE,135,0.0,0.0,71,0.00,,SKC,0.00,VWS V14.00,2013-12-25 05:21:00,
2013-12-24 21:22:00,23.0,15.1,30.33,SE,135,0.0,0.0,71,0.00,,SKC,0.00,VWS V14.00,2013-12-25 05:22:00,
2013-12-24 21:26:00,23.0,15.4,30.33,SE,135,0.0,0.0,72,0.00,,SKC,0.00,VWS V14.00,2013-12-25 05:26:00,
2013-12-24 21:27:00,23.0,15.7,30.33,SE,135,0.0,0.0,73,0.00,,SKC,0.00,VWS V14.00,2013-12-25 05:27:00,
2013-12-24 21:31:00,22.5,15.2,30.36,SE,135,0.0,0.0,73,0.00,,SKC,0.00,VWS V14.00,2013-12-25 05:31:00,
2013-12-24 21:32:00,22.5,15.2,30.36,SE,135,0.0,0.0,73,0.00,,SKC,0.00,VWS V14.00,2013-12-25 05:32:00,
2013-12-24 21:36:00,22.1,14.8,30.36,SE,135,0.0,0.0,73,0.00,,SKC,0.00,VWS V14.00,2013-12-25 05:36:00,
2013-12-24 21:37:00,22.1,14.8,30.36,SE,135,0.0,0.0,73,0.00,,SKC,0.00,VWS V14.00,2013-12-25 05:37:00,
2013-12-24 21:38:00,22.0,14.3,30.36,SE,135,0.0,0.0,72,0.00,,SKC,0.00,VWS V14.00,2013-12-25 05:38:00,
2013-12-24 21:41:00,22.0,14.6,30.36,SE,135,0.0,0.0,73,0.00,,SKC,0.00,VWS V14.00,2013-12-25 05:41:00,
2013-12-24 21:42:00,22.0,14.6,30.36,SE,135,0.0,0.0,73,0.00,,SKC,0.00,VWS V14.00,2013-12-25 05:42:00,
2013-12-24 21:43:00,22.0,14.6,30.36,SE,135,0.0,0.0,73,0.00,,SKC,0.00,VWS V14.00,2013-12-25 05:43:00,
2013-12-24 21:46:00,22.1,15.1,30.36,SE,135,0.0,0.0,74,0.00,,SKC,0.00,VWS V14.00,2013-12-25 05:46:00,
2013-12-24 21:47:00,22.1,15.1,30.36,SE,135,0.0,0.0,74,0.00,,SKC,0.00,VWS V14.00,2013-12-25 05:47:00,
2013-12-24 21:48:00,22.3,15.3,30.36,SE,135,0.0,0.0,74,0.00,,SKC,0.00,VWS V14.00,2013-12-25 05:48:00,
2013-12-24 21:51:00,22.5,15.5,30.36,SE,135,0.0,0.0,74,0.00,,SKC,0.00,VWS V14.00,2013-12-25 05:51:00,
2013-12-24 21:52:00,22.5,15.5,30.36,SE,135,0.0,0.0,74,0.00,,SKC,0.00,VWS V14.00,2013-12-25 05:52:00,
2013-12-24 21:53:00,22.5,15.5,30.36,SE,135,0.0,0.0,74,0.00,,SKC,0.00,VWS V14.00,2013-12-25 05:53:00,
2013-12-24 21:57:00,23.0,16.3,30.36,SE,135,0.0,0.0,75,0.00,,SKC,0.00,VWS V14.00,2013-12-25 05:57:00,
2013-12-24 21:58:00,23.0,16.3,30.36,SE,135,0.0,0.0,75,0.00,,SKC,0.00,VWS V14.00,2013-12-25 05:58:00,
2013-12-24 21:59:00,23.0,16.3,30.36,SE,135,0.0,0.0,75,0.00,,SKC,0.00,VWS V14.00,2013-12-25 05:59:00,
2013-12-24 22:02:00,22.9,16.1,30.36,SE,135,0.0,0.0,75,0.00,,SKC,0.00,VWS V14.00,2013-12-25 06:02:00,
2013-12-24 22:03:00,22.7,16.0,30.36,SE,135,0.0,0.0,75,0.00,,SKC,0.00,VWS V14.00,2013-12-25 06:03:00,
2013-12-24 22:04:00,22.5,15.8,30.36,SE,135,0.0,0.0,75,0.00,,SKC,0.00,VWS V14.00,2013-12-25 06:04:00,
2013-12-24 22:06:00,22.1,15.1,30.36,SE,135,0.0,0.0,74,0.00,,SKC,0.00,VWS V14.00,2013-12-25 06:06:00,
2013-12-24 22:07:00,22.1,15.1,30.36,SE,135,0.0,0.0,74,0.00,,SKC,0.00,VWS V14.00,2013-12-25 06:07:00,
2013-12-24 22:08:00,22.1,15.1,30.36,SE,135,0.0,0.0,74,0.00,,SKC,0.00,VWS V14.00,2013-12-25 06:08:00,
2013-12-24 22:09:00,22.1,15.1,30.36,SE,135,0.0,0.0,74,0.00,,SKC,0.00,VWS V14.00,2013-12-25 06:09:00,
2013-12-24 22:12:00,22.0,15.0,30.36,SE,135,0.0,0.0,74,0.00,,SKC,0.00,VWS V14.00,2013-12-25 06:12:00,
2013-12-24 22:13:00,22.0,15.0,30.36,SE,135,0.0,0.0,74,0.00,,SKC,0.00,VWS V14.00,2013-12-25 06:13:00,
2013-12-24 22:14:00,22.0,15.0,30.36,SE,135,0.0,0.0,74,0.00,,SKC,0.00,VWS V14.00,2013-12-25 06:14:00,
2013-12-24 22:17:00,21.8,15.1,30.36,SE,135,0.0,0.0,75,0.00,,SKC,0.00,VWS V14.00,2013-12-25 06:17:00,
2013-12-24 22:18:00,21.8,15.1,30.36,SE,135,0.0,0.0,75,0.00,,SKC,0.00,VWS V14.00,2013-12-25 06:18:00,
2013-12-24 22:19:00,21.8,15.1,30.36,SE,135,0.0,0.0,75,0.00,,SKC,0.00,VWS V14.00,2013-12-25 06:19:00,
2013-12-24 22:20:00,21.8,15.1,30.36,SE,135,0.0,0.0,75,0.00,,SKC,0.00,VWS V14.00,2013-12-25 06:20:00,
2013-12-24 22:22:00,22.0,15.3,30.36,SE,135,0.0,0.0,75,0.00,,SKC,0.00,VWS V14.00,2013-12-25 06:22:00,
2013-12-24 22:23:00,22.0,15.3,30.36,SE,135,0.0,0.0,75,0.00,,SKC,0.00,VWS V14.00,2013-12-25 06:23:00,
2013-12-24 22:25:00,21.8,15.1,30.36,SE,135,0.0,0.0,75,0.00,,SKC,0.00,VWS V14.00,2013-12-25 06:25:00,
2013-12-24 22:27:00,21.6,14.9,30.36,SE,135,0.0,0.0,75,0.00,,SKC,0.00,VWS V14.00,2013-12-25 06:27:00,
2013-12-24 22:28:00,21.6,14.9,30.36,SE,135,0.0,0.0,75,0.00,,SKC,0.00,VWS V14.00,2013-12-25 06:28:00,
2013-12-24 22:30:00,21.6,14.6,30.36,SE,135,0.0,0.0,74,0.00,,SKC,0.00,VWS V14.00,2013-12-25 06:30:00,
2013-12-24 22:32:00,21.6,14.6,30.36,SE,135,0.0,0.0,74,0.00,,SKC,0.00,VWS V14.00,2013-12-25 06:32:00,
2013-12-24 22:33:00,21.4,14.4,30.36,SE,135,0.0,0.0,74,0.00,,SKC,0.00,VWS V14.00,2013-12-25 06:33:00,
2013-12-24 22:35:00,21.1,14.1,30.36,SE,135,0.0,0.0,74,0.00,,SKC,0.00,VWS V14.00,2013-12-25 06:35:00,
2013-12-24 22:36:00,21.1,14.1,30.36,SE,135,0.0,0.0,74,0.00,,SKC,0.00,VWS V14.00,2013-12-25 06:36:00,
2013-12-24 22:37:00,21.1,14.1,30.36,SE,135,0.0,0.0,74,0.00,,SKC,0.00,VWS V14.00,2013-12-25 06:37:00,
2013-12-24 22:38:00,21.1,14.1,30.36,SE,135,0.0,0.0,74,0.00,,SKC,0.00,VWS V14.00,2013-12-25 06:38:00,
2013-12-24 22:40:00,21.1,14.1,30.36,SE,135,0.0,0.0,74,0.00,,SKC,0.00,VWS V14.00,2013-12-25 06:40:00,
2013-12-24 22:41:00,21.1,14.1,30.36,SE,135,0.0,0.0,74,0.00,,SKC,0.00,VWS V14.00,2013-12-25 06:41:00,
2013-12-24 22:43:00,20.9,13.9,30.36,SE,135,0.0,0.0,74,0.00,,SKC,0.00,VWS V14.00,2013-12-25 06:43:00,
2013-12-24 22:45:00,20.9,13.9,30.39,SE,135,0.0,0.0,74,0.00,,SKC,0.00,VWS V14.00,2013-12-25 06:45:00,
2013-12-24 22:46:00,20.9,13.9,30.39,SE,135,0.0,0.0,74,0.00,,SKC,0.00,VWS V14.00,2013-12-25 06:46:00,
2013-12-24 22:48:00,20.9,13.9,30.39,SE,135,0.0,0.0,74,0.00,,SKC,0.00,VWS V14.00,2013-12-25 06:48:00,
2013-12-24 22:49:00,20.9,13.9,30.39,SE,135,0.0,0.0,74,0.00,,SKC,0.00,VWS V14.00,2013-12-25 06:49:00,
2013-12-24 22:50:00,21.1,14.1,30.39,SE,135,0.0,0.0,74,0.00,,SKC,0.00,VWS V14.00,2013-12-25 06:50:00,
2013-12-24 22:51:00,21.1,14.1,30.39,SE,135,0.0,0.0,74,0.00,,SKC,0.00,VWS V14.00,2013-12-25 06:51:00,
2013-12-24 22:53:00,21.2,14.6,30.39,SE,135,0.0,0.0,75,0.00,,SKC,0.00,VWS V14.00,2013-12-25 06:53:00,
2013-12-24 22:54:00,21.2,14.6,30.39,SE,135,0.0,0.0,75,0.00,,SKC,0.00,VWS V14.00,2013-12-25 06:54:00,
2013-12-24 22:56:00,21.2,14.6,30.39,SE,135,0.0,0.0,75,0.00,,SKC,0.00,VWS V14.00,2013-12-25 06:56:00,
2013-12-24 22:58:00,21.2,14.9,30.39,SE,135,0.0,0.0,76,0.00,,SKC,0.00,VWS V14.00,2013-12-25 06:58:00,
2013-12-24 22:59:00,21.2,14.9,30.36,SE,135,0.0,0.0,76,0.00,,SKC,0.00,VWS V14.00,2013-12-25 06:59:00,
2013-12-24 23:01:00,20.9,14.2,30.36,SE,135,0.0,0.0,75,0.00,,SKC,0.00,VWS V14.00,2013-12-25 07:01:00,
2013-12-24 23:03:00,20.9,14.2,30.36,SE,135,0.0,0.0,75,0.00,,SKC,0.00,VWS V14.00,2013-12-25 07:03:00,
2013-12-24 23:04:00,20.9,14.2,30.36,SE,135,0.0,0.0,75,0.00,,SKC,0.00,VWS V14.00,2013-12-25 07:04:00,
2013-12-24 23:06:00,20.7,14.0,30.36,SE,135,0.0,0.0,75,0.00,,SKC,0.00,VWS V14.00,2013-12-25 07:06:00,
2013-12-24 23:08:00,20.5,13.9,30.36,SE,135,0.0,0.0,75,0.00,,SKC,0.00,VWS V14.00,2013-12-25 07:08:00,
2013-12-24 23:09:00,20.5,13.9,30.36,SE,135,0.0,0.0,75,0.00,,SKC,0.00,VWS V14.00,2013-12-25 07:09:00,
2013-12-24 23:11:00,20.3,13.7,30.36,SE,135,0.0,0.0,75,0.00,,SKC,0.00,VWS V14.00,2013-12-25 07:11:00,
2013-12-24 23:13:00,20.2,13.5,30.36,SE,135,0.0,0.0,75,0.00,,SKC,0.00,VWS V14.00,2013-12-25 07:13:00,
2013-12-24 23:14:00,20.0,13.4,30.36,SE,135,0.0,0.0,75,0.00,,SKC,0.00,VWS V14.00,2013-12-25 07:14:00,
2013-12-24 23:15:00,19.8,13.2,30.36,SE,135,0.0,0.0,75,0.00,,SKC,0.00,VWS V14.00,2013-12-25 07:15:00,
2013-12-24 23:16:00,19.8,13.2,30.36,SE,135,0.0,0.0,75,0.00,,SKC,0.00,VWS V14.00,2013-12-25 07:16:00,
2013-12-24 23:17:00,19.8,13.2,30.36,SE,135,0.0,0.0,75,0.00,,SKC,0.00,VWS V14.00,2013-12-25 07:17:00,
2013-12-24 23:18:00,20.0,13.4,30.36,SE,135,0.0,0.0,75,0.00,,SKC,0.00,VWS V14.00,2013-12-25 07:18:00,
2013-12-24 23:20:00,20.0,13.4,30.36,SE,135,0.0,0.0,75,0.00,,SKC,0.00,VWS V14.00,2013-12-25 07:20:00,
2013-12-24 23:22:00,20.2,13.8,30.36,SE,135,0.0,0.0,76,0.00,,SKC,0.00,VWS V14.00,2013-12-25 07:22:00,
2013-12-24 23:23:00,20.2,13.8,30.36,SE,135,0.0,0.0,76,0.00,,SKC,0.00,VWS V14.00,2013-12-25 07:23:00,
2013-12-24 23:25:00,20.2,14.1,30.36,SE,135,0.0,0.0,77,0.00,,SKC,0.00,VWS V14.00,2013-12-25 07:25:00,
2013-12-24 23:27:00,20.3,14.3,30.36,SE,135,0.0,0.0,77,0.00,,SKC,0.00,VWS V14.00,2013-12-25 07:27:00,
2013-12-24 23:28:00,20.3,14.6,30.36,SE,135,0.0,0.0,78,0.00,,SKC,0.00,VWS V14.00,2013-12-25 07:28:00,
2013-12-24 23:30:00,20.5,14.8,30.36,NNE,22,0.0,0.0,78,0.00,,SKC,0.00,VWS V14.00,2013-12-25 07:30:00,
2013-12-24 23:31:00,20.5,14.8,30.36,NNE,22,0.0,0.0,78,0.00,,SKC,0.00,VWS V14.00,2013-12-25 07:31:00,
2013-12-24 23:33:00,20.9,15.7,30.36,NNE,22,0.0,0.0,80,0.00,,SKC,0.00,VWS V14.00,2013-12-25 07:33:00,
2013-12-24 23:35:00,21.1,16.2,30.36,NNE,22,0.0,0.0,81,0.00,,SKC,0.00,VWS V14.00,2013-12-25 07:35:00,
2013-12-24 23:36:00,20.9,16.3,30.36,NNE,22,0.0,0.0,82,0.00,,SKC,0.00,VWS V14.00,2013-12-25 07:36:00,
2013-12-24 23:38:00,20.7,16.1,30.36,NNE,22,0.0,0.0,82,0.00,,SKC,0.00,VWS V14.00,2013-12-25 07:38:00,
2013-12-24 23:40:00,20.5,15.6,30.36,NNE,22,0.0,0.0,81,0.00,,SKC,0.00,VWS V14.00,2013-12-25 07:40:00,
2013-12-24 23:41:00,20.5,15.6,30.36,NNE,22,0.0,0.0,81,0.00,,SKC,0.00,VWS V14.00,2013-12-25 07:41:00,
2013-12-24 23:43:00,20.3,15.2,30.36,NNE,22,0.0,0.0,80,0.00,,SKC,0.00,VWS V14.00,2013-12-25 07:43:00,
2013-12-24 23:44:00,20.3,15.2,30.36,NNE,22,0.0,0.0,80,0.00,,SKC,0.00,VWS V14.00,2013-12-25 07:44:00,
2013-12-24 23:45:00,20.3,15.2,30.36,NNE,22,0.0,0.0,80,0.00,,SKC,0.00,VWS V14.00,2013-12-25 07:45:00,
2013-12-24 23:46:00,20.2,14.7,30.36,NNE,22,0.0,0.0,79,0.00,,SKC,0.00,VWS V14.00,2013-12-25 07:46:00,
2013-12-24 23:48:00,20.0,14.5,30.36,NNE,22,0.0,0.0,79,0.00,,SKC,0.00,VWS V14.00,2013-12-25 07:48:00,
2013-12-24 23:49:00,20.0,14.2,30.36,NNE,22,0.0,0.0,78,0.00,,SKC,0.00,VWS V14.00,2013-12-25 07:49:00,
2013-12-24 23:50:00,20.2,14.4,30.36,NNE,22,0.0,0.0,78,0.00,,SKC,0.00,VWS V14.00,2013-12-25 07:50:00,
2013-12-24 23:51:00,20.3,14.6,30.36,NNE,22,0.0,0.0,78,0.00,,SKC,0.00,VWS V14.00,2013-12-25 07:51:00,
2013-12-24 23:53:00,20.5,14.8,30.36,NNE,22,0.0,0.0,78,0.00,,SKC,0.00,VWS V14.00,2013-12-25 07:53:00,
2013-12-24 23:54:00,20.5,14.8,30.36,NNE,22,0.0,0.0,78,0.00,,SKC,0.00,VWS V14.00,2013-12-25 07:54:00,
2013-12-24 23:55:00,20.5,14.8,30.36,NNE,22,0.0,0.0,78,0.00,,SKC,0.00,VWS V14.00,2013-12-25 07:55:00,
2013-12-24 23:56:00,20.5,14.8,30.36,NNE,22,0.0,0.0,78,0.00,,SKC,0.00,VWS V14.00,2013-12-25 07:56:00,
2013-12-24 23:57:00,20.5,14.8,30.36,NNE,22,0.0,0.0,78,0.00,,SKC,0.00,VWS V14.00,2013-12-25 07:57:00,
2013-12-24 23:58:00,20.3,14.6,30.36,NNE,22,0.0,0.0,78,0.00,,SKC,0.00,VWS V14.00,2013-12-25 07:58:00,
2013-12-24 23:59:00,20.3,14.6,30.36,NNE,22,0.0,0.0,78,0.00,,SKC,0.00,VWS V14.00,2013-12-25 07:59:00,